<?xml version="1.0"?>
<gpx xmlns="http://www.topografix.com/GPX/1/1" xmlns:xsi="http://www.w3.org/2001/XMLSchema-instance" xmlns:wptx1="http://www.garmin.com/xmlschemas/WaypointExtension/v1" xmlns:gpxtrx="http://www.garmin.com/xmlschemas/GpxExtensions/v3" xmlns:gpxtpx="http://www.garmin.com/xmlschemas/TrackPointExtension/v1" xmlns:gpxx="http://www.garmin.com/xmlschemas/GpxExtensions/v3" xmlns:trp="http://www.garmin.com/xmlschemas/TripExtensions/v1" xmlns:adv="http://www.garmin.com/xmlschemas/AdventuresExtensions/v1" xmlns:prs="http://www.garmin.com/xmlschemas/PressureExtension/v1" creator="Garmin Desktop App" version="1.1" xsi:schemaLocation="http://www.topografix.com/GPX/1/1 http://www.topografix.com/GPX/1/1/gpx.xsd http://www.garmin.com/xmlschemas/WaypointExtension/v1 http://www8.garmin.com/xmlschemas/WaypointExtensionv1.xsd http://www.garmin.com/xmlschemas/TrackPointExtension/v1 http://www.garmin.com/xmlschemas/TrackPointExtensionv1.xsd http://www.garmin.com/xmlschemas/GpxExtensions/v3 http://www8.garmin.com/xmlschemas/GpxExtensionsv3.xsd http://www.garmin.com/xmlschemas/ActivityExtension/v1 http://www8.garmin.com/xmlschemas/ActivityExtensionv1.xsd http://www.garmin.com/xmlschemas/AdventuresExtensions/v1 http://www8.garmin.com/xmlschemas/AdventuresExtensionv1.xsd http://www.garmin.com/xmlschemas/PressureExtension/v1 http://www.garmin.com/xmlschemas/PressureExtensionv1.xsd http://www.garmin.com/xmlschemas/TripExtensions/v1 http://www.garmin.com/xmlschemas/TripExtensionsv1.xsd">

  <metadata>
    <link href="http://www.garmin.com">
      <text>Garmin International</text>
    </link>
    <time>2013-04-09T06:21:48Z</time>
    <bounds maxlat="47.673158068209887" maxlon="11.914191814139485" minlat="47.662478601559997" minlon="11.889923522248864"/>
  </metadata>

  <trk>
    <name>Benzing 2013.04.07</name>
    <extensions>
      <gpxx:TrackExtension>
        <gpxx:DisplayColor>Cyan</gpxx:DisplayColor>
      </gpxx:TrackExtension>
    </extensions>
    <trkseg>
      <trkpt lat="47.665384355932474" lon="11.889973981305957">
        <ele>1064.316650390625</ele>
        <time>2013-04-07T11:04:35Z</time>
      </trkpt>
      <trkpt lat="47.665385361760855" lon="11.889974819496274">
        <ele>1061.91357421875</ele>
        <time>2013-04-07T11:04:37Z</time>
      </trkpt>
      <trkpt lat="47.665381925180554" lon="11.889983201399446">
        <ele>1063.8359375</ele>
        <time>2013-04-07T11:04:40Z</time>
      </trkpt>
      <trkpt lat="47.665352588519454" lon="11.890015052631497">
        <ele>1067.20068359375</ele>
        <time>2013-04-07T11:05:02Z</time>
      </trkpt>
      <trkpt lat="47.665352588519454" lon="11.890014717355371">
        <ele>1070.084716796875</ele>
        <time>2013-04-07T11:05:07Z</time>
      </trkpt>
      <trkpt lat="47.665352672338486" lon="11.890014298260212">
        <ele>1073.929931640625</ele>
        <time>2013-04-07T11:05:12Z</time>
      </trkpt>
      <trkpt lat="47.665352672338486" lon="11.890014298260212">
        <ele>1073.929931640625</ele>
        <time>2013-04-07T11:05:13Z</time>
      </trkpt>
      <trkpt lat="47.665353007614613" lon="11.890013627707958">
        <ele>1076.81396484375</ele>
        <time>2013-04-07T11:05:21Z</time>
      </trkpt>
      <trkpt lat="47.665353091433644" lon="11.890013292431831">
        <ele>1078.736572265625</ele>
        <time>2013-04-07T11:05:27Z</time>
      </trkpt>
      <trkpt lat="47.665352839976549" lon="11.890013040974736">
        <ele>1082.581787109375</ele>
        <time>2013-04-07T11:05:40Z</time>
      </trkpt>
      <trkpt lat="47.665353091433644" lon="11.890012538060546">
        <ele>1086.90771484375</ele>
        <time>2013-04-07T11:06:04Z</time>
      </trkpt>
      <trkpt lat="47.665353007614613" lon="11.890012538060546">
        <ele>1086.42724609375</ele>
        <time>2013-04-07T11:06:05Z</time>
      </trkpt>
      <trkpt lat="47.665352923795581" lon="11.890012370422482">
        <ele>1085.4658203125</ele>
        <time>2013-04-07T11:06:07Z</time>
      </trkpt>
      <trkpt lat="47.665353929623961" lon="11.889995019882917">
        <ele>1087.388427734375</ele>
        <time>2013-04-07T11:06:41Z</time>
      </trkpt>
      <trkpt lat="47.665354600176215" lon="11.889988984912634">
        <ele>1087.869140625</ele>
        <time>2013-04-07T11:07:02Z</time>
      </trkpt>
      <trkpt lat="47.665354600176215" lon="11.889986218884587">
        <ele>1087.869140625</ele>
        <time>2013-04-07T11:07:29Z</time>
      </trkpt>
      <trkpt lat="47.665364574640989" lon="11.889956211671233">
        <ele>1087.388427734375</ele>
        <time>2013-04-07T11:07:33Z</time>
      </trkpt>
      <trkpt lat="47.665361221879721" lon="11.889927042648196">
        <ele>1087.388427734375</ele>
        <time>2013-04-07T11:07:45Z</time>
      </trkpt>
      <trkpt lat="47.665361724793911" lon="11.88992771320045">
        <ele>1087.869140625</ele>
        <time>2013-04-07T11:08:14Z</time>
      </trkpt>
      <trkpt lat="47.665369100868702" lon="11.889923522248864">
        <ele>1088.349853515625</ele>
        <time>2013-04-07T11:08:25Z</time>
      </trkpt>
      <trkpt lat="47.665408998727798" lon="11.889940872788429">
        <ele>1087.869140625</ele>
        <time>2013-04-07T11:08:48Z</time>
      </trkpt>
      <trkpt lat="47.665441855788231" lon="11.889966437593102">
        <ele>1088.349853515625</ele>
        <time>2013-04-07T11:08:52Z</time>
      </trkpt>
      <trkpt lat="47.665513772517443" lon="11.890024105086923">
        <ele>1087.388427734375</ele>
        <time>2013-04-07T11:09:04Z</time>
      </trkpt>
      <trkpt lat="47.665513688698411" lon="11.890021339058876">
        <ele>1086.90771484375</ele>
        <time>2013-04-07T11:09:13Z</time>
      </trkpt>
      <trkpt lat="47.665510252118111" lon="11.890035588294268">
        <ele>1087.869140625</ele>
        <time>2013-04-07T11:09:21Z</time>
      </trkpt>
      <trkpt lat="47.665510587394238" lon="11.890036091208458">
        <ele>1088.349853515625</ele>
        <time>2013-04-07T11:09:33Z</time>
      </trkpt>
      <trkpt lat="47.665524082258344" lon="11.890078252181411">
        <ele>1088.83056640625</ele>
        <time>2013-04-07T11:09:53Z</time>
      </trkpt>
      <trkpt lat="47.665586695075035" lon="11.890171961858869">
        <ele>1091.71435546875</ele>
        <time>2013-04-07T11:10:05Z</time>
      </trkpt>
      <trkpt lat="47.665625922381878" lon="11.890288135036826">
        <ele>1093.636962890625</ele>
        <time>2013-04-07T11:10:22Z</time>
      </trkpt>
      <trkpt lat="47.665594071149826" lon="11.890414534136653">
        <ele>1096.040283203125</ele>
        <time>2013-04-07T11:10:37Z</time>
      </trkpt>
      <trkpt lat="47.665590886026621" lon="11.890430459752679">
        <ele>1095.5595703125</ele>
        <time>2013-04-07T11:10:54Z</time>
      </trkpt>
      <trkpt lat="47.665543612092733" lon="11.890564486384392">
        <ele>1097.00146484375</ele>
        <time>2013-04-07T11:11:08Z</time>
      </trkpt>
      <trkpt lat="47.665532967075706" lon="11.890615113079548">
        <ele>1098.443359375</ele>
        <time>2013-04-07T11:11:17Z</time>
      </trkpt>
      <trkpt lat="47.665505725890398" lon="11.890729106962681">
        <ele>1099.885498046875</ele>
        <time>2013-04-07T11:11:29Z</time>
      </trkpt>
      <trkpt lat="47.665502959862351" lon="11.890748301520944">
        <ele>1102.288818359375</ele>
        <time>2013-04-07T11:11:35Z</time>
      </trkpt>
      <trkpt lat="47.665448561310768" lon="11.890890542417765">
        <ele>1102.288818359375</ele>
        <time>2013-04-07T11:11:50Z</time>
      </trkpt>
      <trkpt lat="47.665382847189903" lon="11.891095563769341">
        <ele>1104.692138671875</ele>
        <time>2013-04-07T11:12:08Z</time>
      </trkpt>
      <trkpt lat="47.665305649861693" lon="11.891249371692538">
        <ele>1107.576171875</ele>
        <time>2013-04-07T11:12:27Z</time>
      </trkpt>
      <trkpt lat="47.665244042873383" lon="11.891363114118576">
        <ele>1110.940673828125</ele>
        <time>2013-04-07T11:12:45Z</time>
      </trkpt>
      <trkpt lat="47.665214790031314" lon="11.891415668651462">
        <ele>1112.86328125</ele>
        <time>2013-04-07T11:12:52Z</time>
      </trkpt>
      <trkpt lat="47.665166845545173" lon="11.891567884013057">
        <ele>1116.22802734375</ele>
        <time>2013-04-07T11:13:08Z</time>
      </trkpt>
      <trkpt lat="47.665143124759197" lon="11.891636028885841">
        <ele>1118.150634765625</ele>
        <time>2013-04-07T11:13:18Z</time>
      </trkpt>
      <trkpt lat="47.66513348557055" lon="11.891669472679496">
        <ele>1119.112060546875</ele>
        <time>2013-04-07T11:13:29Z</time>
      </trkpt>
      <trkpt lat="47.66509878449142" lon="11.891781622543931">
        <ele>1122.957275390625</ele>
        <time>2013-04-07T11:13:41Z</time>
      </trkpt>
      <trkpt lat="47.665064670145512" lon="11.891920929774642">
        <ele>1126.32177734375</ele>
        <time>2013-04-07T11:13:56Z</time>
      </trkpt>
      <trkpt lat="47.665035668760538" lon="11.892030229791999">
        <ele>1130.1669921875</ele>
        <time>2013-04-07T11:14:10Z</time>
      </trkpt>
      <trkpt lat="47.665032902732491" lon="11.892036264762282">
        <ele>1130.1669921875</ele>
        <time>2013-04-07T11:14:11Z</time>
      </trkpt>
      <trkpt lat="47.665009265765548" lon="11.892131818458438">
        <ele>1133.53173828125</ele>
        <time>2013-04-07T11:14:25Z</time>
      </trkpt>
      <trkpt lat="47.664968697354198" lon="11.892244471237063">
        <ele>1136.896240234375</ele>
        <time>2013-04-07T11:14:41Z</time>
      </trkpt>
      <trkpt lat="47.664948077872396" lon="11.89229073934257">
        <ele>1138.33837890625</ele>
        <time>2013-04-07T11:14:50Z</time>
      </trkpt>
      <trkpt lat="47.664920417591929" lon="11.892356956377625">
        <ele>1141.22216796875</ele>
        <time>2013-04-07T11:15:01Z</time>
      </trkpt>
      <trkpt lat="47.664891500025988" lon="11.892373049631715">
        <ele>1142.664306640625</ele>
        <time>2013-04-07T11:15:10Z</time>
      </trkpt>
      <trkpt lat="47.664827713742852" lon="11.892365841194987">
        <ele>1146.02880859375</ele>
        <time>2013-04-07T11:15:20Z</time>
      </trkpt>
      <trkpt lat="47.664760407060385" lon="11.892401715740561">
        <ele>1148.912841796875</ele>
        <time>2013-04-07T11:15:30Z</time>
      </trkpt>
      <trkpt lat="47.664701314643025" lon="11.892506321892142">
        <ele>1148.912841796875</ele>
        <time>2013-04-07T11:15:41Z</time>
      </trkpt>
      <trkpt lat="47.664615651592612" lon="11.892604054883122">
        <ele>1152.758056640625</ele>
        <time>2013-04-07T11:15:56Z</time>
      </trkpt>
      <trkpt lat="47.664520684629679" lon="11.892724586650729">
        <ele>1155.64208984375</ele>
        <time>2013-04-07T11:16:13Z</time>
      </trkpt>
      <trkpt lat="47.664450695738196" lon="11.892933128401637">
        <ele>1159.006591796875</ele>
        <time>2013-04-07T11:16:33Z</time>
      </trkpt>
      <trkpt lat="47.664418676868081" lon="11.893065730109811">
        <ele>1161.890625</ele>
        <time>2013-04-07T11:16:48Z</time>
      </trkpt>
      <trkpt lat="47.664396464824677" lon="11.893201265484095">
        <ele>1165.25537109375</ele>
        <time>2013-04-07T11:17:04Z</time>
      </trkpt>
      <trkpt lat="47.664346843957901" lon="11.89330025576055">
        <ele>1168.13916015625</ele>
        <time>2013-04-07T11:17:20Z</time>
      </trkpt>
      <trkpt lat="47.66433116979897" lon="11.893337806686759">
        <ele>1170.54248046875</ele>
        <time>2013-04-07T11:17:26Z</time>
      </trkpt>
      <trkpt lat="47.664305604994297" lon="11.893456662073731">
        <ele>1173.426513671875</ele>
        <time>2013-04-07T11:17:42Z</time>
      </trkpt>
      <trkpt lat="47.664264114573598" lon="11.893537798896432">
        <ele>1176.791015625</ele>
        <time>2013-04-07T11:17:54Z</time>
      </trkpt>
      <trkpt lat="47.664256151765585" lon="11.893661767244339">
        <ele>1180.15576171875</ele>
        <time>2013-04-07T11:18:10Z</time>
      </trkpt>
      <trkpt lat="47.664235783740878" lon="11.893708789721131">
        <ele>1183.03955078125</ele>
        <time>2013-04-07T11:18:21Z</time>
      </trkpt>
      <trkpt lat="47.664208794012666" lon="11.893708454445004">
        <ele>1184.0009765625</ele>
        <time>2013-04-07T11:18:31Z</time>
      </trkpt>
      <trkpt lat="47.664208626374602" lon="11.893719267100096">
        <ele>1184.96240234375</ele>
        <time>2013-04-07T11:18:33Z</time>
      </trkpt>
      <trkpt lat="47.664242405444384" lon="11.893812557682395">
        <ele>1186.884765625</ele>
        <time>2013-04-07T11:18:47Z</time>
      </trkpt>
      <trkpt lat="47.664243495091796" lon="11.893827393651009">
        <ele>1187.84619140625</ele>
        <time>2013-04-07T11:19:03Z</time>
      </trkpt>
      <trkpt lat="47.664227737113833" lon="11.893833512440324">
        <ele>1187.84619140625</ele>
        <time>2013-04-07T11:19:14Z</time>
      </trkpt>
      <trkpt lat="47.664227904751897" lon="11.893841307610273">
        <ele>1188.8076171875</ele>
        <time>2013-04-07T11:19:21Z</time>
      </trkpt>
      <trkpt lat="47.664205022156239" lon="11.893835105001926">
        <ele>1188.326904296875</ele>
        <time>2013-04-07T11:19:29Z</time>
      </trkpt>
      <trkpt lat="47.664170991629362" lon="11.893822280690074">
        <ele>1189.768798828125</ele>
        <time>2013-04-07T11:19:46Z</time>
      </trkpt>
      <trkpt lat="47.664181301370263" lon="11.893840134143829">
        <ele>1190.72998046875</ele>
        <time>2013-04-07T11:19:55Z</time>
      </trkpt>
      <trkpt lat="47.664190270006657" lon="11.89387927763164">
        <ele>1191.210693359375</ele>
        <time>2013-04-07T11:20:03Z</time>
      </trkpt>
      <trkpt lat="47.664205441251397" lon="11.8939418066293">
        <ele>1193.13330078125</ele>
        <time>2013-04-07T11:20:13Z</time>
      </trkpt>
      <trkpt lat="47.664214996621013" lon="11.893969047814608">
        <ele>1194.0947265625</ele>
        <time>2013-04-07T11:20:21Z</time>
      </trkpt>
      <trkpt lat="47.664217427372932" lon="11.894020428881049">
        <ele>1194.5751953125</ele>
        <time>2013-04-07T11:20:36Z</time>
      </trkpt>
      <trkpt lat="47.664216170087457" lon="11.894043479114771">
        <ele>1195.055908203125</ele>
        <time>2013-04-07T11:20:46Z</time>
      </trkpt>
      <trkpt lat="47.66420753672719" lon="11.894081700593233">
        <ele>1196.017578125</ele>
        <time>2013-04-07T11:20:55Z</time>
      </trkpt>
      <trkpt lat="47.664198400452733" lon="11.894085891544819">
        <ele>1196.978759765625</ele>
        <time>2013-04-07T11:21:06Z</time>
      </trkpt>
      <trkpt lat="47.664194796234369" lon="11.894108103588223">
        <ele>1198.420654296875</ele>
        <time>2013-04-07T11:21:14Z</time>
      </trkpt>
      <trkpt lat="47.664201417937875" lon="11.894156886264682">
        <ele>1197.940185546875</ele>
        <time>2013-04-07T11:21:25Z</time>
      </trkpt>
      <trkpt lat="47.664190856739879" lon="11.894207345321774">
        <ele>1201.3046875</ele>
        <time>2013-04-07T11:21:32Z</time>
      </trkpt>
      <trkpt lat="47.664182055741549" lon="11.89423156902194">
        <ele>1200.343505859375</ele>
        <time>2013-04-07T11:21:42Z</time>
      </trkpt>
      <trkpt lat="47.664156910032034" lon="11.894204998388886">
        <ele>1201.785400390625</ele>
        <time>2013-04-07T11:21:50Z</time>
      </trkpt>
      <trkpt lat="47.664080718532205" lon="11.894182115793228">
        <ele>1205.630615234375</ele>
        <time>2013-04-07T11:22:03Z</time>
      </trkpt>
      <trkpt lat="47.664107959717512" lon="11.894242130219936">
        <ele>1207.55322265625</ele>
        <time>2013-04-07T11:22:14Z</time>
      </trkpt>
      <trkpt lat="47.664117179811001" lon="11.894315555691719">
        <ele>1208.033935546875</ele>
        <time>2013-04-07T11:22:22Z</time>
      </trkpt>
      <trkpt lat="47.664112150669098" lon="11.89438110217452">
        <ele>1209.956298828125</ele>
        <time>2013-04-07T11:22:33Z</time>
      </trkpt>
      <trkpt lat="47.664112905040383" lon="11.894452013075352">
        <ele>1210.917724609375</ele>
        <time>2013-04-07T11:22:46Z</time>
      </trkpt>
      <trkpt lat="47.664118520915508" lon="11.894495096057653">
        <ele>1212.35986328125</ele>
        <time>2013-04-07T11:22:59Z</time>
      </trkpt>
      <trkpt lat="47.664113491773605" lon="11.894600875675678">
        <ele>1215.243896484375</ele>
        <time>2013-04-07T11:23:11Z</time>
      </trkpt>
      <trkpt lat="47.6641068700701" lon="11.894680755212903">
        <ele>1217.16650390625</ele>
        <time>2013-04-07T11:23:22Z</time>
      </trkpt>
      <trkpt lat="47.664100499823689" lon="11.894796593114734">
        <ele>1221.01171875</ele>
        <time>2013-04-07T11:23:36Z</time>
      </trkpt>
      <trkpt lat="47.664148779585958" lon="11.89494151622057">
        <ele>1224.376220703125</ele>
        <time>2013-04-07T11:23:53Z</time>
      </trkpt>
      <trkpt lat="47.664214745163918" lon="11.895029442384839">
        <ele>1227.26025390625</ele>
        <time>2013-04-07T11:24:09Z</time>
      </trkpt>
      <trkpt lat="47.664272664114833" lon="11.895053749904037">
        <ele>1227.26025390625</ele>
        <time>2013-04-07T11:24:22Z</time>
      </trkpt>
      <trkpt lat="47.66431943513453" lon="11.895065568387508">
        <ele>1227.74072265625</ele>
        <time>2013-04-07T11:24:32Z</time>
      </trkpt>
      <trkpt lat="47.664350783452392" lon="11.895075542852283">
        <ele>1229.182861328125</ele>
        <time>2013-04-07T11:24:36Z</time>
      </trkpt>
      <trkpt lat="47.664458910003304" lon="11.895112674683332">
        <ele>1232.06689453125</ele>
        <time>2013-04-07T11:24:51Z</time>
      </trkpt>
      <trkpt lat="47.664464106783271" lon="11.895113596692681">
        <ele>1232.06689453125</ele>
        <time>2013-04-07T11:24:52Z</time>
      </trkpt>
      <trkpt lat="47.664570305496454" lon="11.895161205902696">
        <ele>1234.950927734375</ele>
        <time>2013-04-07T11:25:08Z</time>
      </trkpt>
      <trkpt lat="47.664685724303126" lon="11.895182160660625">
        <ele>1237.834716796875</ele>
        <time>2013-04-07T11:25:25Z</time>
      </trkpt>
      <trkpt lat="47.664824360981584" lon="11.895255502313375">
        <ele>1239.75732421875</ele>
        <time>2013-04-07T11:25:43Z</time>
      </trkpt>
      <trkpt lat="47.664825534448028" lon="11.895271008834243">
        <ele>1238.796142578125</ele>
        <time>2013-04-07T11:25:58Z</time>
      </trkpt>
      <trkpt lat="47.664838023483753" lon="11.895282911136746">
        <ele>1239.276611328125</ele>
        <time>2013-04-07T11:26:16Z</time>
      </trkpt>
      <trkpt lat="47.664834419265389" lon="11.895287521183491">
        <ele>1239.276611328125</ele>
        <time>2013-04-07T11:26:29Z</time>
      </trkpt>
      <trkpt lat="47.664830982685089" lon="11.895272685214877">
        <ele>1238.796142578125</ele>
        <time>2013-04-07T11:28:25Z</time>
      </trkpt>
      <trkpt lat="47.664852607995272" lon="11.895370250567794">
        <ele>1241.19921875</ele>
        <time>2013-04-07T11:32:54Z</time>
      </trkpt>
      <trkpt lat="47.664885381236672" lon="11.895535290241241">
        <ele>1243.121826171875</ele>
        <time>2013-04-07T11:33:07Z</time>
      </trkpt>
      <trkpt lat="47.664891751483083" lon="11.895636627450585">
        <ele>1244.56396484375</ele>
        <time>2013-04-07T11:33:19Z</time>
      </trkpt>
      <trkpt lat="47.664903234690428" lon="11.895722122862935">
        <ele>1247.447998046875</ele>
        <time>2013-04-07T11:33:31Z</time>
      </trkpt>
      <trkpt lat="47.664919076487422" lon="11.895786663517356">
        <ele>1249.851318359375</ele>
        <time>2013-04-07T11:33:45Z</time>
      </trkpt>
      <trkpt lat="47.664914047345519" lon="11.895851120352745">
        <ele>1253.2158203125</ele>
        <time>2013-04-07T11:33:58Z</time>
      </trkpt>
      <trkpt lat="47.664917651563883" lon="11.895894287154078">
        <ele>1252.735107421875</ele>
        <time>2013-04-07T11:34:11Z</time>
      </trkpt>
      <trkpt lat="47.664884123951197" lon="11.89598623663187">
        <ele>1254.65771484375</ele>
        <time>2013-04-07T11:34:25Z</time>
      </trkpt>
      <trkpt lat="47.664815476164222" lon="11.896091848611832">
        <ele>1257.06103515625</ele>
        <time>2013-04-07T11:34:41Z</time>
      </trkpt>
      <trkpt lat="47.664825115352869" lon="11.896203244104981">
        <ele>1260.42578125</ele>
        <time>2013-04-07T11:34:54Z</time>
      </trkpt>
      <trkpt lat="47.664817990735173" lon="11.896317321807146">
        <ele>1263.309814453125</ele>
        <time>2013-04-07T11:35:08Z</time>
      </trkpt>
      <trkpt lat="47.664828049018979" lon="11.896474985405803">
        <ele>1267.155029296875</ele>
        <time>2013-04-07T11:35:27Z</time>
      </trkpt>
      <trkpt lat="47.664850847795606" lon="11.896615298464894">
        <ele>1270.038818359375</ele>
        <time>2013-04-07T11:35:44Z</time>
      </trkpt>
      <trkpt lat="47.664861492812634" lon="11.896727364510298">
        <ele>1273.403564453125</ele>
        <time>2013-04-07T11:35:58Z</time>
      </trkpt>
      <trkpt lat="47.664886470884085" lon="11.896828869357705">
        <ele>1276.28759765625</ele>
        <time>2013-04-07T11:36:13Z</time>
      </trkpt>
      <trkpt lat="47.664862498641014" lon="11.896915286779404">
        <ele>1279.652099609375</ele>
        <time>2013-04-07T11:36:28Z</time>
      </trkpt>
      <trkpt lat="47.664842465892434" lon="11.897005643695593">
        <ele>1282.5361328125</ele>
        <time>2013-04-07T11:36:47Z</time>
      </trkpt>
      <trkpt lat="47.664844058454037" lon="11.897136820480227">
        <ele>1285.900634765625</ele>
        <time>2013-04-07T11:37:04Z</time>
      </trkpt>
      <trkpt lat="47.664843471720815" lon="11.897251568734646">
        <ele>1288.78466796875</ele>
        <time>2013-04-07T11:37:19Z</time>
      </trkpt>
      <trkpt lat="47.664833581075072" lon="11.897362042218447">
        <ele>1292.1494140625</ele>
        <time>2013-04-07T11:37:35Z</time>
      </trkpt>
      <trkpt lat="47.664832826703787" lon="11.897456338629127">
        <ele>1295.033203125</ele>
        <time>2013-04-07T11:37:47Z</time>
      </trkpt>
      <trkpt lat="47.664837352931499" lon="11.897574523463845">
        <ele>1298.397705078125</ele>
        <time>2013-04-07T11:38:03Z</time>
      </trkpt>
      <trkpt lat="47.66483249142766" lon="11.89768667332828">
        <ele>1301.28173828125</ele>
        <time>2013-04-07T11:38:19Z</time>
      </trkpt>
      <trkpt lat="47.664837269112468" lon="11.897809887304902">
        <ele>1304.646240234375</ele>
        <time>2013-04-07T11:38:33Z</time>
      </trkpt>
      <trkpt lat="47.664842717349529" lon="11.897912733256817">
        <ele>1308.01123046875</ele>
        <time>2013-04-07T11:38:51Z</time>
      </trkpt>
      <trkpt lat="47.66483492217958" lon="11.898020692169666">
        <ele>1310.89501953125</ele>
        <time>2013-04-07T11:39:06Z</time>
      </trkpt>
      <trkpt lat="47.664826959371567" lon="11.89812789671123">
        <ele>1314.259521484375</ele>
        <time>2013-04-07T11:39:21Z</time>
      </trkpt>
      <trkpt lat="47.664827294647694" lon="11.898213056847453">
        <ele>1315.70166015625</ele>
        <time>2013-04-07T11:39:32Z</time>
      </trkpt>
      <trkpt lat="47.664834754541516" lon="11.898227892816067">
        <ele>1315.220947265625</ele>
        <time>2013-04-07T11:39:36Z</time>
      </trkpt>
      <trkpt lat="47.664817236363888" lon="11.898276172578335">
        <ele>1317.6240234375</ele>
        <time>2013-04-07T11:40:08Z</time>
      </trkpt>
      <trkpt lat="47.664805585518479" lon="11.89833702519536">
        <ele>1320.02734375</ele>
        <time>2013-04-07T11:40:24Z</time>
      </trkpt>
      <trkpt lat="47.664802400395274" lon="11.898450097069144">
        <ele>1323.87255859375</ele>
        <time>2013-04-07T11:40:38Z</time>
      </trkpt>
      <trkpt lat="47.664805166423321" lon="11.898578256368637">
        <ele>1326.7568359375</ele>
        <time>2013-04-07T11:40:55Z</time>
      </trkpt>
      <trkpt lat="47.664788654074073" lon="11.898690909147263">
        <ele>1330.121337890625</ele>
        <time>2013-04-07T11:41:11Z</time>
      </trkpt>
      <trkpt lat="47.664776667952538" lon="11.898765424266458">
        <ele>1333.48583984375</ele>
        <time>2013-04-07T11:41:25Z</time>
      </trkpt>
      <trkpt lat="47.664767699316144" lon="11.89883834682405">
        <ele>1336.850341796875</ele>
        <time>2013-04-07T11:41:45Z</time>
      </trkpt>
      <trkpt lat="47.664757808670402" lon="11.898915460333228">
        <ele>1338.29248046875</ele>
        <time>2013-04-07T11:42:04Z</time>
      </trkpt>
      <trkpt lat="47.664749259129167" lon="11.899020234122872">
        <ele>1341.176513671875</ele>
        <time>2013-04-07T11:42:18Z</time>
      </trkpt>
      <trkpt lat="47.664727130904794" lon="11.899108411744237">
        <ele>1344.541015625</ele>
        <time>2013-04-07T11:42:31Z</time>
      </trkpt>
      <trkpt lat="47.664721431210637" lon="11.899210168048739">
        <ele>1347.425048828125</ele>
        <time>2013-04-07T11:42:47Z</time>
      </trkpt>
      <trkpt lat="47.664710367098451" lon="11.89930597320199">
        <ele>1350.78955078125</ele>
        <time>2013-04-07T11:43:01Z</time>
      </trkpt>
      <trkpt lat="47.664681533351541" lon="11.899423906579614">
        <ele>1353.673583984375</ele>
        <time>2013-04-07T11:43:17Z</time>
      </trkpt>
      <trkpt lat="47.664642054587603" lon="11.89955030567944">
        <ele>1357.038330078125</ele>
        <time>2013-04-07T11:43:34Z</time>
      </trkpt>
      <trkpt lat="47.664611712098122" lon="11.899715596809983">
        <ele>1359.922119140625</ele>
        <time>2013-04-07T11:43:52Z</time>
      </trkpt>
      <trkpt lat="47.664586650207639" lon="11.899873428046703">
        <ele>1363.286865234375</ele>
        <time>2013-04-07T11:44:14Z</time>
      </trkpt>
      <trkpt lat="47.664567371830344" lon="11.900040730834007">
        <ele>1367.132080078125</ele>
        <time>2013-04-07T11:44:34Z</time>
      </trkpt>
      <trkpt lat="47.664567204192281" lon="11.900048945099115">
        <ele>1367.612548828125</ele>
        <time>2013-04-07T11:44:35Z</time>
      </trkpt>
      <trkpt lat="47.664555134251714" lon="11.900168051943183">
        <ele>1370.977294921875</ele>
        <time>2013-04-07T11:44:50Z</time>
      </trkpt>
      <trkpt lat="47.664547674357891" lon="11.900232173502445">
        <ele>1371.457763671875</ele>
        <time>2013-04-07T11:45:02Z</time>
      </trkpt>
      <trkpt lat="47.664545830339193" lon="11.900335103273392">
        <ele>1372.900146484375</ele>
        <time>2013-04-07T11:45:15Z</time>
      </trkpt>
      <trkpt lat="47.664541723206639" lon="11.90046058036387">
        <ele>1376.2646484375</ele>
        <time>2013-04-07T11:45:31Z</time>
      </trkpt>
      <trkpt lat="47.66453493386507" lon="11.900596115738153">
        <ele>1378.66796875</ele>
        <time>2013-04-07T11:45:47Z</time>
      </trkpt>
      <trkpt lat="47.664531329646707" lon="11.900725783780217">
        <ele>1381.5517578125</ele>
        <time>2013-04-07T11:46:02Z</time>
      </trkpt>
      <trkpt lat="47.664530742913485" lon="11.900872886180878">
        <ele>1383.474365234375</ele>
        <time>2013-04-07T11:46:21Z</time>
      </trkpt>
      <trkpt lat="47.664522444829345" lon="11.900928625836968">
        <ele>1384.435791015625</ele>
        <time>2013-04-07T11:46:30Z</time>
      </trkpt>
      <trkpt lat="47.664515739306808" lon="11.900981348007917">
        <ele>1384.435791015625</ele>
        <time>2013-04-07T11:46:38Z</time>
      </trkpt>
      <trkpt lat="47.664505932480097" lon="11.901128785684705">
        <ele>1387.80029296875</ele>
        <time>2013-04-07T11:46:55Z</time>
      </trkpt>
      <trkpt lat="47.664489503949881" lon="11.901270691305399">
        <ele>1390.684326171875</ele>
        <time>2013-04-07T11:47:12Z</time>
      </trkpt>
      <trkpt lat="47.664467124268413" lon="11.901387367397547">
        <ele>1394.049072265625</ele>
        <time>2013-04-07T11:47:27Z</time>
      </trkpt>
      <trkpt lat="47.66444306820631" lon="11.901522064581513">
        <ele>1397.41357421875</ele>
        <time>2013-04-07T11:47:44Z</time>
      </trkpt>
      <trkpt lat="47.664431920275092" lon="11.901585096493363">
        <ele>1399.336181640625</ele>
        <time>2013-04-07T11:47:52Z</time>
      </trkpt>
      <trkpt lat="47.66440887004137" lon="11.901687355712056">
        <ele>1402.219970703125</ele>
        <time>2013-04-07T11:48:08Z</time>
      </trkpt>
      <trkpt lat="47.664411636069417" lon="11.901756841689348">
        <ele>1403.662109375</ele>
        <time>2013-04-07T11:48:23Z</time>
      </trkpt>
      <trkpt lat="47.664400152862072" lon="11.901833703741431">
        <ele>1407.02685546875</ele>
        <time>2013-04-07T11:48:33Z</time>
      </trkpt>
      <trkpt lat="47.664374504238367" lon="11.901949290186167">
        <ele>1408.949462890625</ele>
        <time>2013-04-07T11:48:48Z</time>
      </trkpt>
      <trkpt lat="47.664356902241707" lon="11.902014166116714">
        <ele>1410.391357421875</ele>
        <time>2013-04-07T11:48:57Z</time>
      </trkpt>
      <trkpt lat="47.664333768188953" lon="11.902217930182815">
        <ele>1413.755859375</ele>
        <time>2013-04-07T11:49:19Z</time>
      </trkpt>
      <trkpt lat="47.664353298023343" lon="11.902365870773792">
        <ele>1417.12060546875</ele>
        <time>2013-04-07T11:49:37Z</time>
      </trkpt>
      <trkpt lat="47.664368469268084" lon="11.902536107227206">
        <ele>1420.004638671875</ele>
        <time>2013-04-07T11:49:54Z</time>
      </trkpt>
      <trkpt lat="47.664422448724508" lon="11.902719251811504">
        <ele>1423.369384765625</ele>
        <time>2013-04-07T11:50:14Z</time>
      </trkpt>
      <trkpt lat="47.66449092887342" lon="11.903006667271256">
        <ele>1425.7724609375</ele>
        <time>2013-04-07T11:50:41Z</time>
      </trkpt>
      <trkpt lat="47.66450610011816" lon="11.903246305882931">
        <ele>1428.17578125</ele>
        <time>2013-04-07T11:51:02Z</time>
      </trkpt>
      <trkpt lat="47.664521690458059" lon="11.903493404388428">
        <ele>1431.059814453125</ele>
        <time>2013-04-07T11:51:23Z</time>
      </trkpt>
      <trkpt lat="47.664535017684102" lon="11.903712172061205">
        <ele>1434.42431640625</ele>
        <time>2013-04-07T11:51:42Z</time>
      </trkpt>
      <trkpt lat="47.664573490619659" lon="11.903894059360027">
        <ele>1437.7890625</ele>
        <time>2013-04-07T11:51:59Z</time>
      </trkpt>
      <trkpt lat="47.664641886949539" lon="11.904139565303922">
        <ele>1441.63427734375</ele>
        <time>2013-04-07T11:52:22Z</time>
      </trkpt>
      <trkpt lat="47.664687149226665" lon="11.904276525601745">
        <ele>1443.076171875</ele>
        <time>2013-04-07T11:52:34Z</time>
      </trkpt>
      <trkpt lat="47.664693770930171" lon="11.904293959960341">
        <ele>1442.595703125</ele>
        <time>2013-04-07T11:52:43Z</time>
      </trkpt>
      <trkpt lat="47.664716234430671" lon="11.904369732365012">
        <ele>1443.556884765625</ele>
        <time>2013-04-07T11:52:53Z</time>
      </trkpt>
      <trkpt lat="47.664806004613638" lon="11.904525216668844">
        <ele>1444.51806640625</ele>
        <time>2013-04-07T11:53:08Z</time>
      </trkpt>
      <trkpt lat="47.664849758148193" lon="11.904600318521261">
        <ele>1444.51806640625</ele>
        <time>2013-04-07T11:53:19Z</time>
      </trkpt>
      <trkpt lat="47.664886554703116" lon="11.904644574970007">
        <ele>1445.4794921875</ele>
        <time>2013-04-07T11:53:28Z</time>
      </trkpt>
      <trkpt lat="47.664953777566552" lon="11.904743397608399">
        <ele>1444.998779296875</ele>
        <time>2013-04-07T11:53:40Z</time>
      </trkpt>
      <trkpt lat="47.665052013471723" lon="11.904885806143284">
        <ele>1445.960205078125</ele>
        <time>2013-04-07T11:53:57Z</time>
      </trkpt>
      <trkpt lat="47.6651515904814" lon="11.904997872188687">
        <ele>1445.960205078125</ele>
        <time>2013-04-07T11:54:11Z</time>
      </trkpt>
      <trkpt lat="47.665260806679726" lon="11.905068447813392">
        <ele>1447.8828125</ele>
        <time>2013-04-07T11:54:25Z</time>
      </trkpt>
      <trkpt lat="47.6654296182096" lon="11.905137347057462">
        <ele>1448.36328125</ele>
        <time>2013-04-07T11:54:42Z</time>
      </trkpt>
      <trkpt lat="47.665554424747825" lon="11.905208760872483">
        <ele>1449.805419921875</ele>
        <time>2013-04-07T11:54:58Z</time>
      </trkpt>
      <trkpt lat="47.665590299293399" lon="11.905223345384002">
        <ele>1450.2861328125</ele>
        <time>2013-04-07T11:55:08Z</time>
      </trkpt>
      <trkpt lat="47.665664730593562" lon="11.90523792989552">
        <ele>1449.32470703125</ele>
        <time>2013-04-07T11:55:20Z</time>
      </trkpt>
      <trkpt lat="47.665686188265681" lon="11.905242037028074">
        <ele>1449.32470703125</ele>
        <time>2013-04-07T11:55:22Z</time>
      </trkpt>
      <trkpt lat="47.665763888508081" lon="11.905300710350275">
        <ele>1448.36328125</ele>
        <time>2013-04-07T11:55:28Z</time>
      </trkpt>
      <trkpt lat="47.665849886834621" lon="11.905355276539922">
        <ele>1448.36328125</ele>
        <time>2013-04-07T11:55:44Z</time>
      </trkpt>
      <trkpt lat="47.66592163592577" lon="11.905418056994677">
        <ele>1447.8828125</ele>
        <time>2013-04-07T11:56:00Z</time>
      </trkpt>
      <trkpt lat="47.665937645360827" lon="11.90543775446713">
        <ele>1448.36328125</ele>
        <time>2013-04-07T11:56:12Z</time>
      </trkpt>
      <trkpt lat="47.666033282876015" lon="11.905511096119881">
        <ele>1449.32470703125</ele>
        <time>2013-04-07T11:56:27Z</time>
      </trkpt>
      <trkpt lat="47.666138811036944" lon="11.905592568218708">
        <ele>1448.843994140625</ele>
        <time>2013-04-07T11:56:41Z</time>
      </trkpt>
      <trkpt lat="47.666230089962482" lon="11.905664820224047">
        <ele>1446.92138671875</ele>
        <time>2013-04-07T11:56:55Z</time>
      </trkpt>
      <trkpt lat="47.666308712214231" lon="11.905724080279469">
        <ele>1445.4794921875</ele>
        <time>2013-04-07T11:57:06Z</time>
      </trkpt>
      <trkpt lat="47.666423376649618" lon="11.905810413882136">
        <ele>1444.03759765625</ele>
        <time>2013-04-07T11:57:20Z</time>
      </trkpt>
      <trkpt lat="47.666534101590514" lon="11.905903285369277">
        <ele>1442.595703125</ele>
        <time>2013-04-07T11:57:33Z</time>
      </trkpt>
      <trkpt lat="47.666644994169474" lon="11.906003281474113">
        <ele>1441.153564453125</ele>
        <time>2013-04-07T11:57:45Z</time>
      </trkpt>
      <trkpt lat="47.666782541200519" lon="11.906099589541554">
        <ele>1441.63427734375</ele>
        <time>2013-04-07T11:58:00Z</time>
      </trkpt>
      <trkpt lat="47.666861331090331" lon="11.906181732192636">
        <ele>1440.1923828125</ele>
        <time>2013-04-07T11:58:07Z</time>
      </trkpt>
      <trkpt lat="47.66695705242455" lon="11.906265048310161">
        <ele>1440.1923828125</ele>
        <time>2013-04-07T11:58:18Z</time>
      </trkpt>
      <trkpt lat="47.666982617229223" lon="11.906299749389291">
        <ele>1442.595703125</ele>
        <time>2013-04-07T11:58:27Z</time>
      </trkpt>
      <trkpt lat="47.666981359943748" lon="11.906300252303481">
        <ele>1441.153564453125</ele>
        <time>2013-04-07T11:58:30Z</time>
      </trkpt>
      <trkpt lat="47.66704011708498" lon="11.906356243416667">
        <ele>1443.076171875</ele>
        <time>2013-04-07T12:00:14Z</time>
      </trkpt>
      <trkpt lat="47.667185124009848" lon="11.906507117673755">
        <ele>1445.4794921875</ele>
        <time>2013-04-07T12:00:32Z</time>
      </trkpt>
      <trkpt lat="47.667295765131712" lon="11.906635779887438">
        <ele>1445.960205078125</ele>
        <time>2013-04-07T12:00:46Z</time>
      </trkpt>
      <trkpt lat="47.667421409860253" lon="11.906809620559216">
        <ele>1448.36328125</ele>
        <time>2013-04-07T12:01:02Z</time>
      </trkpt>
      <trkpt lat="47.66750480979681" lon="11.906927721574903">
        <ele>1451.247314453125</ele>
        <time>2013-04-07T12:01:18Z</time>
      </trkpt>
      <trkpt lat="47.667655181139708" lon="11.907048840075731">
        <ele>1453.65087890625</ele>
        <time>2013-04-07T12:01:38Z</time>
      </trkpt>
      <trkpt lat="47.667844612151384" lon="11.907204911112785">
        <ele>1455.573486328125</ele>
        <time>2013-04-07T12:02:02Z</time>
      </trkpt>
      <trkpt lat="47.667967658489943" lon="11.907304152846336">
        <ele>1457.976806640625</ele>
        <time>2013-04-07T12:02:19Z</time>
      </trkpt>
      <trkpt lat="47.668070001527667" lon="11.907429378479719">
        <ele>1459.899169921875</ele>
        <time>2013-04-07T12:02:35Z</time>
      </trkpt>
      <trkpt lat="47.668173434212804" lon="11.907545970752835">
        <ele>1459.899169921875</ele>
        <time>2013-04-07T12:02:48Z</time>
      </trkpt>
      <trkpt lat="47.668258510529995" lon="11.907660299912095">
        <ele>1456.53466796875</ele>
        <time>2013-04-07T12:02:56Z</time>
      </trkpt>
      <trkpt lat="47.668326906859875" lon="11.907781586050987">
        <ele>1455.573486328125</ele>
        <time>2013-04-07T12:03:00Z</time>
      </trkpt>
      <trkpt lat="47.66836672089994" lon="11.907872026786208">
        <ele>1457.976806640625</ele>
        <time>2013-04-07T12:03:08Z</time>
      </trkpt>
      <trkpt lat="47.668443415313959" lon="11.908019883558154">
        <ele>1458.93798828125</ele>
        <time>2013-04-07T12:03:22Z</time>
      </trkpt>
      <trkpt lat="47.668494209647179" lon="11.908168829977512">
        <ele>1461.34130859375</ele>
        <time>2013-04-07T12:03:36Z</time>
      </trkpt>
      <trkpt lat="47.668509464710951" lon="11.908235214650631">
        <ele>1461.822021484375</ele>
        <time>2013-04-07T12:03:42Z</time>
      </trkpt>
      <trkpt lat="47.668545674532652" lon="11.908374102786183">
        <ele>1463.744384765625</ele>
        <time>2013-04-07T12:03:53Z</time>
      </trkpt>
      <trkpt lat="47.668594792485237" lon="11.90854056738317">
        <ele>1464.22509765625</ele>
        <time>2013-04-07T12:04:07Z</time>
      </trkpt>
      <trkpt lat="47.668656734749675" lon="11.908726142719388">
        <ele>1466.147705078125</ele>
        <time>2013-04-07T12:04:22Z</time>
      </trkpt>
      <trkpt lat="47.668727561831474" lon="11.908881375566125">
        <ele>1466.147705078125</ele>
        <time>2013-04-07T12:04:34Z</time>
      </trkpt>
      <trkpt lat="47.668778439983726" lon="11.909052617847919">
        <ele>1469.031982421875</ele>
        <time>2013-04-07T12:04:49Z</time>
      </trkpt>
      <trkpt lat="47.668798975646496" lon="11.909232074394822">
        <ele>1472.396484375</ele>
        <time>2013-04-07T12:05:08Z</time>
      </trkpt>
      <trkpt lat="47.668789839372039" lon="11.909361071884632">
        <ele>1475.2802734375</ele>
        <time>2013-04-07T12:05:24Z</time>
      </trkpt>
      <trkpt lat="47.668765196576715" lon="11.909475149586797">
        <ele>1477.203125</ele>
        <time>2013-04-07T12:05:40Z</time>
      </trkpt>
      <trkpt lat="47.668755473569036" lon="11.909538265317678">
        <ele>1479.606201171875</ele>
        <time>2013-04-07T12:05:58Z</time>
      </trkpt>
      <trkpt lat="47.668742397800088" lon="11.909660389646888">
        <ele>1482.970703125</ele>
        <time>2013-04-07T12:06:11Z</time>
      </trkpt>
      <trkpt lat="47.668734099715948" lon="11.909788381308317">
        <ele>1486.335693359375</ele>
        <time>2013-04-07T12:06:28Z</time>
      </trkpt>
      <trkpt lat="47.668713312596083" lon="11.909901117905974">
        <ele>1489.7001953125</ele>
        <time>2013-04-07T12:06:43Z</time>
      </trkpt>
      <trkpt lat="47.668688921257854" lon="11.9100137706846">
        <ele>1492.584228515625</ele>
        <time>2013-04-07T12:06:57Z</time>
      </trkpt>
      <trkpt lat="47.668673666194081" lon="11.910111336037517">
        <ele>1495.468017578125</ele>
        <time>2013-04-07T12:07:09Z</time>
      </trkpt>
      <trkpt lat="47.668662015348673" lon="11.910231783986092">
        <ele>1498.351806640625</ele>
        <time>2013-04-07T12:07:25Z</time>
      </trkpt>
      <trkpt lat="47.668630499392748" lon="11.910369247198105">
        <ele>1501.716796875</ele>
        <time>2013-04-07T12:07:43Z</time>
      </trkpt>
      <trkpt lat="47.668620273470879" lon="11.910477709025145">
        <ele>1504.6005859375</ele>
        <time>2013-04-07T12:07:57Z</time>
      </trkpt>
      <trkpt lat="47.668666793033481" lon="11.91057225689292">
        <ele>1507.96533203125</ele>
        <time>2013-04-07T12:08:12Z</time>
      </trkpt>
      <trkpt lat="47.668735357001424" lon="11.910658925771713">
        <ele>1510.84912109375</ele>
        <time>2013-04-07T12:08:28Z</time>
      </trkpt>
      <trkpt lat="47.668809955939651" lon="11.91073595546186">
        <ele>1514.213623046875</ele>
        <time>2013-04-07T12:08:45Z</time>
      </trkpt>
      <trkpt lat="47.668876675888896" lon="11.910787923261523">
        <ele>1517.578369140625</ele>
        <time>2013-04-07T12:08:59Z</time>
      </trkpt>
      <trkpt lat="47.668983293697238" lon="11.910850200802088">
        <ele>1520.46240234375</ele>
        <time>2013-04-07T12:09:23Z</time>
      </trkpt>
      <trkpt lat="47.669013971462846" lon="11.910904347896576">
        <ele>1522.385009765625</ele>
        <time>2013-04-07T12:09:34Z</time>
      </trkpt>
      <trkpt lat="47.669003996998072" lon="11.910967295989394">
        <ele>1525.268798828125</ele>
        <time>2013-04-07T12:09:44Z</time>
      </trkpt>
      <trkpt lat="47.668980611488223" lon="11.911089923232794">
        <ele>1527.191650390625</ele>
        <time>2013-04-07T12:09:59Z</time>
      </trkpt>
      <trkpt lat="47.668977426365018" lon="11.91111221909523">
        <ele>1528.633544921875</ele>
        <time>2013-04-07T12:10:02Z</time>
      </trkpt>
      <trkpt lat="47.668944736942649" lon="11.91118941642344">
        <ele>1530.075439453125</ele>
        <time>2013-04-07T12:10:16Z</time>
      </trkpt>
      <trkpt lat="47.668971559032798" lon="11.911204503849149">
        <ele>1531.998046875</ele>
        <time>2013-04-07T12:10:26Z</time>
      </trkpt>
      <trkpt lat="47.669033836573362" lon="11.911224955692887">
        <ele>1535.36279296875</ele>
        <time>2013-04-07T12:10:37Z</time>
      </trkpt>
      <trkpt lat="47.669097455218434" lon="11.911239791661501">
        <ele>1535.843505859375</ele>
        <time>2013-04-07T12:10:52Z</time>
      </trkpt>
      <trkpt lat="47.669217903167009" lon="11.911271642893553">
        <ele>1538.7275390625</ele>
        <time>2013-04-07T12:11:08Z</time>
      </trkpt>
      <trkpt lat="47.669285964220762" lon="11.911344062536955">
        <ele>1542.092041015625</ele>
        <time>2013-04-07T12:11:22Z</time>
      </trkpt>
      <trkpt lat="47.669317983090878" lon="11.911403071135283">
        <ele>1544.4951171875</ele>
        <time>2013-04-07T12:11:31Z</time>
      </trkpt>
      <trkpt lat="47.669365592300892" lon="11.911516143009067">
        <ele>1548.340576171875</ele>
        <time>2013-04-07T12:11:46Z</time>
      </trkpt>
      <trkpt lat="47.669382942840457" lon="11.911569368094206">
        <ele>1550.263427734375</ele>
        <time>2013-04-07T12:12:01Z</time>
      </trkpt>
      <trkpt lat="47.669340362772346" lon="11.911612031981349">
        <ele>1551.705322265625</ele>
        <time>2013-04-07T12:12:13Z</time>
      </trkpt>
      <trkpt lat="47.66930784098804" lon="11.911646481603384">
        <ele>1553.147216796875</ele>
        <time>2013-04-07T12:12:25Z</time>
      </trkpt>
      <trkpt lat="47.66927557066083" lon="11.911702221259475">
        <ele>1555.550537109375</ele>
        <time>2013-04-07T12:12:36Z</time>
      </trkpt>
      <trkpt lat="47.669219663366675" lon="11.91180070862174">
        <ele>1558.9150390625</ele>
        <time>2013-04-07T12:12:48Z</time>
      </trkpt>
      <trkpt lat="47.669266350567341" lon="11.911838343366981">
        <ele>1559.876220703125</ele>
        <time>2013-04-07T12:12:58Z</time>
      </trkpt>
      <trkpt lat="47.669343883171678" lon="11.911900201812387">
        <ele>1563.721435546875</ele>
        <time>2013-04-07T12:13:12Z</time>
      </trkpt>
      <trkpt lat="47.669353606179357" lon="11.912000449374318">
        <ele>1566.605712890625</ele>
        <time>2013-04-07T12:13:26Z</time>
      </trkpt>
      <trkpt lat="47.669301386922598" lon="11.912090219557285">
        <ele>1569.97021484375</ele>
        <time>2013-04-07T12:13:42Z</time>
      </trkpt>
      <trkpt lat="47.66933323815465" lon="11.912138164043427">
        <ele>1571.892822265625</ele>
        <time>2013-04-07T12:13:49Z</time>
      </trkpt>
      <trkpt lat="47.669409262016416" lon="11.912202034145594">
        <ele>1575.25732421875</ele>
        <time>2013-04-07T12:14:03Z</time>
      </trkpt>
      <trkpt lat="47.669452764093876" lon="11.912279315292835">
        <ele>1577.18017578125</ele>
        <time>2013-04-07T12:14:17Z</time>
      </trkpt>
      <trkpt lat="47.669415380805731" lon="11.912375371903181">
        <ele>1579.583251953125</ele>
        <time>2013-04-07T12:14:30Z</time>
      </trkpt>
      <trkpt lat="47.66942753456533" lon="11.91238559782505">
        <ele>1581.025634765625</ele>
        <time>2013-04-07T12:14:32Z</time>
      </trkpt>
      <trkpt lat="47.669442454352975" lon="11.912463298067451">
        <ele>1584.39013671875</ele>
        <time>2013-04-07T12:14:44Z</time>
      </trkpt>
      <trkpt lat="47.669416470453143" lon="11.912571927532554">
        <ele>1586.793212890625</ele>
        <time>2013-04-07T12:14:57Z</time>
      </trkpt>
      <trkpt lat="47.669411860406399" lon="11.912597492337227">
        <ele>1588.2353515625</ele>
        <time>2013-04-07T12:15:00Z</time>
      </trkpt>
      <trkpt lat="47.669394006952643" lon="11.91268902271986">
        <ele>1591.599853515625</ele>
        <time>2013-04-07T12:15:10Z</time>
      </trkpt>
      <trkpt lat="47.669334327802062" lon="11.912868227809668">
        <ele>1594.483642578125</ele>
        <time>2013-04-07T12:15:29Z</time>
      </trkpt>
      <trkpt lat="47.669307002797723" lon="11.912921285256743">
        <ele>1594.483642578125</ele>
        <time>2013-04-07T12:15:43Z</time>
      </trkpt>
      <trkpt lat="47.669328460469842" lon="11.912984903901815">
        <ele>1595.445068359375</ele>
        <time>2013-04-07T12:20:13Z</time>
      </trkpt>
      <trkpt lat="47.669372214004397" lon="11.913079870864749">
        <ele>1597.367919921875</ele>
        <time>2013-04-07T12:20:24Z</time>
      </trkpt>
      <trkpt lat="47.669410267844796" lon="11.913216998800635">
        <ele>1600.732421875</ele>
        <time>2013-04-07T12:20:39Z</time>
      </trkpt>
      <trkpt lat="47.669436587020755" lon="11.913349768146873">
        <ele>1604.09716796875</ele>
        <time>2013-04-07T12:20:55Z</time>
      </trkpt>
      <trkpt lat="47.669449159875512" lon="11.9134571403265">
        <ele>1606.500244140625</ele>
        <time>2013-04-07T12:21:09Z</time>
      </trkpt>
      <trkpt lat="47.669473048299551" lon="11.913464600220323">
        <ele>1607.9423828125</ele>
        <time>2013-04-07T12:21:23Z</time>
      </trkpt>
      <trkpt lat="47.669537924230099" lon="11.913388911634684">
        <ele>1610.345458984375</ele>
        <time>2013-04-07T12:21:39Z</time>
      </trkpt>
      <trkpt lat="47.669624509289861" lon="11.913359742611647">
        <ele>1613.229736328125</ele>
        <time>2013-04-07T12:21:54Z</time>
      </trkpt>
      <trkpt lat="47.669679159298539" lon="11.913373153656721">
        <ele>1616.59423828125</ele>
        <time>2013-04-07T12:22:05Z</time>
      </trkpt>
      <trkpt lat="47.669757781550288" lon="11.913418918848038">
        <ele>1619.958740234375</ele>
        <time>2013-04-07T12:22:21Z</time>
      </trkpt>
      <trkpt lat="47.669784687459469" lon="11.91354850307107">
        <ele>1621.400634765625</ele>
        <time>2013-04-07T12:22:34Z</time>
      </trkpt>
      <trkpt lat="47.669891472905874" lon="11.913613546639681">
        <ele>1623.323486328125</ele>
        <time>2013-04-07T12:22:52Z</time>
      </trkpt>
      <trkpt lat="47.669997671619058" lon="11.913656294345856">
        <ele>1626.68798828125</ele>
        <time>2013-04-07T12:23:09Z</time>
      </trkpt>
      <trkpt lat="47.670084340497851" lon="11.91368043422699">
        <ele>1629.572021484375</ele>
        <time>2013-04-07T12:23:22Z</time>
      </trkpt>
      <trkpt lat="47.670226246118546" lon="11.913740113377571">
        <ele>1631.49462890625</ele>
        <time>2013-04-07T12:23:41Z</time>
      </trkpt>
      <trkpt lat="47.670286679640412" lon="11.913786549121141">
        <ele>1634.859375</ele>
        <time>2013-04-07T12:23:51Z</time>
      </trkpt>
      <trkpt lat="47.67037108540535" lon="11.913855616003275">
        <ele>1637.7431640625</ele>
        <time>2013-04-07T12:24:06Z</time>
      </trkpt>
      <trkpt lat="47.670460352674127" lon="11.913946894928813">
        <ele>1641.107666015625</ele>
        <time>2013-04-07T12:24:24Z</time>
      </trkpt>
      <trkpt lat="47.670491700991988" lon="11.913976483047009">
        <ele>1642.5498046875</ele>
        <time>2013-04-07T12:24:32Z</time>
      </trkpt>
      <trkpt lat="47.670580297708511" lon="11.91404839977622">
        <ele>1645.433837890625</ele>
        <time>2013-04-07T12:24:48Z</time>
      </trkpt>
      <trkpt lat="47.670687586069107" lon="11.914123836904764">
        <ele>1648.317626953125</ele>
        <time>2013-04-07T12:25:07Z</time>
      </trkpt>
      <trkpt lat="47.670760676264763" lon="11.914153257384896">
        <ele>1652.6435546875</ele>
        <time>2013-04-07T12:25:20Z</time>
      </trkpt>
      <trkpt lat="47.67081281170249" lon="11.914147892966866">
        <ele>1654.085693359375</ele>
        <time>2013-04-07T12:25:32Z</time>
      </trkpt>
      <trkpt lat="47.670883722603321" lon="11.914114784449339">
        <ele>1657.4501953125</ele>
        <time>2013-04-07T12:25:45Z</time>
      </trkpt>
      <trkpt lat="47.670931247994304" lon="11.914090141654015">
        <ele>1659.372802734375</ele>
        <time>2013-04-07T12:25:53Z</time>
      </trkpt>
      <trkpt lat="47.671003416180611" lon="11.914042448624969">
        <ele>1662.2568359375</ele>
        <time>2013-04-07T12:26:07Z</time>
      </trkpt>
      <trkpt lat="47.671081535518169" lon="11.913976650685072">
        <ele>1665.62158203125</ele>
        <time>2013-04-07T12:26:23Z</time>
      </trkpt>
      <trkpt lat="47.671154458075762" lon="11.913906242698431">
        <ele>1668.986083984375</ele>
        <time>2013-04-07T12:26:38Z</time>
      </trkpt>
      <trkpt lat="47.671197038143873" lon="11.91386416554451">
        <ele>1670.90869140625</ele>
        <time>2013-04-07T12:26:53Z</time>
      </trkpt>
      <trkpt lat="47.671203492209315" lon="11.913857962936163">
        <ele>1671.38916015625</ele>
        <time>2013-04-07T12:26:55Z</time>
      </trkpt>
      <trkpt lat="47.67127993516624" lon="11.913794847205281">
        <ele>1674.75390625</ele>
        <time>2013-04-07T12:27:10Z</time>
      </trkpt>
      <trkpt lat="47.67136056907475" lon="11.913746064528823">
        <ele>1678.11865234375</ele>
        <time>2013-04-07T12:27:25Z</time>
      </trkpt>
      <trkpt lat="47.671437514945865" lon="11.913705747574568">
        <ele>1681.9638671875</ele>
        <time>2013-04-07T12:27:40Z</time>
      </trkpt>
      <trkpt lat="47.671508006751537" lon="11.913658054545522">
        <ele>1684.847900390625</ele>
        <time>2013-04-07T12:27:54Z</time>
      </trkpt>
      <trkpt lat="47.671597274020314" lon="11.913599381223321">
        <ele>1688.21240234375</ele>
        <time>2013-04-07T12:28:10Z</time>
      </trkpt>
      <trkpt lat="47.671664580702782" lon="11.91355830989778">
        <ele>1691.09619140625</ele>
        <time>2013-04-07T12:28:23Z</time>
      </trkpt>
      <trkpt lat="47.6716826017946" lon="11.913546659052372">
        <ele>1691.576904296875</ele>
        <time>2013-04-07T12:28:38Z</time>
      </trkpt>
      <trkpt lat="47.671749573200941" lon="11.913493433967233">
        <ele>1694.4609375</ele>
        <time>2013-04-07T12:28:53Z</time>
      </trkpt>
      <trkpt lat="47.671810174360871" lon="11.913446327671409">
        <ele>1697.82568359375</ele>
        <time>2013-04-07T12:29:05Z</time>
      </trkpt>
      <trkpt lat="47.671892317011952" lon="11.913370219990611">
        <ele>1700.70947265625</ele>
        <time>2013-04-07T12:29:22Z</time>
      </trkpt>
      <trkpt lat="47.671922408044338" lon="11.913345912471414">
        <ele>1702.632080078125</ele>
        <time>2013-04-07T12:29:35Z</time>
      </trkpt>
      <trkpt lat="47.671960294246674" lon="11.913306433707476">
        <ele>1704.5546875</ele>
        <time>2013-04-07T12:29:51Z</time>
      </trkpt>
      <trkpt lat="47.672037575393915" lon="11.913230996578932">
        <ele>1707.91943359375</ele>
        <time>2013-04-07T12:30:07Z</time>
      </trkpt>
      <trkpt lat="47.672106139361858" lon="11.913156900554895">
        <ele>1711.2841796875</ele>
        <time>2013-04-07T12:30:22Z</time>
      </trkpt>
      <trkpt lat="47.67218878492713" lon="11.913064364343882">
        <ele>1714.648681640625</ele>
        <time>2013-04-07T12:30:39Z</time>
      </trkpt>
      <trkpt lat="47.672248799353838" lon="11.912985909730196">
        <ele>1717.532470703125</ele>
        <time>2013-04-07T12:30:54Z</time>
      </trkpt>
      <trkpt lat="47.672285679727793" lon="11.912943162024021">
        <ele>1719.455322265625</ele>
        <time>2013-04-07T12:31:12Z</time>
      </trkpt>
      <trkpt lat="47.672367319464684" lon="11.912855571135879">
        <ele>1722.81982421875</ele>
        <time>2013-04-07T12:31:28Z</time>
      </trkpt>
      <trkpt lat="47.67244677990675" lon="11.912769405171275">
        <ele>1726.1845703125</ele>
        <time>2013-04-07T12:31:45Z</time>
      </trkpt>
      <trkpt lat="47.672515595331788" lon="11.912707882001996">
        <ele>1729.549072265625</ele>
        <time>2013-04-07T12:32:01Z</time>
      </trkpt>
      <trkpt lat="47.672604443505406" lon="11.912640910595655">
        <ele>1732.91357421875</ele>
        <time>2013-04-07T12:32:18Z</time>
      </trkpt>
      <trkpt lat="47.672692034393549" lon="11.912567736580968">
        <ele>1735.797607421875</ele>
        <time>2013-04-07T12:32:32Z</time>
      </trkpt>
      <trkpt lat="47.672711815685034" lon="11.912558432668447">
        <ele>1736.2783203125</ele>
        <time>2013-04-07T12:32:44Z</time>
      </trkpt>
      <trkpt lat="47.672728998586535" lon="11.912550972774625">
        <ele>1737.239501953125</ele>
        <time>2013-04-07T12:32:48Z</time>
      </trkpt>
      <trkpt lat="47.672778116539121" lon="11.912525072693825">
        <ele>1738.681640625</ele>
        <time>2013-04-07T12:32:58Z</time>
      </trkpt>
      <trkpt lat="47.672788593918085" lon="11.912443097680807">
        <ele>1739.162109375</ele>
        <time>2013-04-07T12:33:06Z</time>
      </trkpt>
      <trkpt lat="47.672808710485697" lon="11.912297001108527">
        <ele>1738.681640625</ele>
        <time>2013-04-07T12:33:20Z</time>
      </trkpt>
      <trkpt lat="47.672859085723758" lon="11.912241261452436">
        <ele>1739.162109375</ele>
        <time>2013-04-07T12:33:29Z</time>
      </trkpt>
      <trkpt lat="47.672969894483685" lon="11.912192227318883">
        <ele>1739.642822265625</ele>
        <time>2013-04-07T12:33:42Z</time>
      </trkpt>
      <trkpt lat="47.673065029084682" lon="11.912183091044426">
        <ele>1743.007568359375</ele>
        <time>2013-04-07T12:33:56Z</time>
      </trkpt>
      <trkpt lat="47.673155050724745" lon="11.912184096872807">
        <ele>1744.93017578125</ele>
        <time>2013-04-07T12:34:14Z</time>
      </trkpt>
      <trkpt lat="47.673153961077332" lon="11.912182336673141">
        <ele>1742.527099609375</ele>
        <time>2013-04-07T12:34:41Z</time>
      </trkpt>
      <trkpt lat="47.673158068209887" lon="11.912191137671471">
        <ele>1743.48828125</ele>
        <time>2013-04-07T12:34:52Z</time>
      </trkpt>
      <trkpt lat="47.673153961077332" lon="11.912192227318883">
        <ele>1743.48828125</ele>
        <time>2013-04-07T12:38:08Z</time>
      </trkpt>
      <trkpt lat="47.673156475648284" lon="11.912194322794676">
        <ele>1740.604248046875</ele>
        <time>2013-04-07T12:44:29Z</time>
      </trkpt>
      <trkpt lat="47.673156894743443" lon="11.912198765203357">
        <ele>1742.527099609375</ele>
        <time>2013-04-07T12:47:56Z</time>
      </trkpt>
      <trkpt lat="47.673153541982174" lon="11.912199519574642">
        <ele>1742.04638671875</ele>
        <time>2013-04-07T12:48:13Z</time>
      </trkpt>
      <trkpt lat="47.673154128715396" lon="11.912188874557614">
        <ele>1741.0849609375</ele>
        <time>2013-04-07T12:49:30Z</time>
      </trkpt>
      <trkpt lat="47.673102663829923" lon="11.912142774090171">
        <ele>1740.123779296875</ele>
        <time>2013-04-07T12:49:35Z</time>
      </trkpt>
      <trkpt lat="47.673023035749793" lon="11.912049064412713">
        <ele>1736.2783203125</ele>
        <time>2013-04-07T12:49:38Z</time>
      </trkpt>
      <trkpt lat="47.672886746004224" lon="11.91202593035996">
        <ele>1732.91357421875</ele>
        <time>2013-04-07T12:49:41Z</time>
      </trkpt>
      <trkpt lat="47.672717766836286" lon="11.912099858745933">
        <ele>1730.9912109375</ele>
        <time>2013-04-07T12:49:45Z</time>
      </trkpt>
      <trkpt lat="47.672687172889709" lon="11.912118215113878">
        <ele>1729.549072265625</ele>
        <time>2013-04-07T12:49:46Z</time>
      </trkpt>
      <trkpt lat="47.672548033297062" lon="11.912139505147934">
        <ele>1722.339111328125</ele>
        <time>2013-04-07T12:49:50Z</time>
      </trkpt>
      <trkpt lat="47.672517355531454" lon="11.912171272560954">
        <ele>1722.339111328125</ele>
        <time>2013-04-07T12:49:51Z</time>
      </trkpt>
      <trkpt lat="47.672458682209253" lon="11.912303203716874">
        <ele>1719.935791015625</ele>
        <time>2013-04-07T12:49:54Z</time>
      </trkpt>
      <trkpt lat="47.672385843470693" lon="11.912360787391663">
        <ele>1713.206787109375</ele>
        <time>2013-04-07T12:49:57Z</time>
      </trkpt>
      <trkpt lat="47.672260534018278" lon="11.912361038848758">
        <ele>1708.400146484375</ele>
        <time>2013-04-07T12:49:59Z</time>
      </trkpt>
      <trkpt lat="47.67221518792212" lon="11.912395656108856">
        <ele>1707.91943359375</ele>
        <time>2013-04-07T12:50:00Z</time>
      </trkpt>
      <trkpt lat="47.672171015292406" lon="11.912503698840737">
        <ele>1706.9580078125</ele>
        <time>2013-04-07T12:50:02Z</time>
      </trkpt>
      <trkpt lat="47.672085100784898" lon="11.912489617243409">
        <ele>1699.267578125</ele>
        <time>2013-04-07T12:50:05Z</time>
      </trkpt>
      <trkpt lat="47.672059200704098" lon="11.912417029961944">
        <ele>1697.344970703125</ele>
        <time>2013-04-07T12:50:07Z</time>
      </trkpt>
      <trkpt lat="47.672076215967536" lon="11.912407893687487">
        <ele>1697.344970703125</ele>
        <time>2013-04-07T12:50:09Z</time>
      </trkpt>
      <trkpt lat="47.672047633677721" lon="11.912437230348587">
        <ele>1696.3837890625</ele>
        <time>2013-04-07T12:50:15Z</time>
      </trkpt>
      <trkpt lat="47.672051070258021" lon="11.91241099499166">
        <ele>1696.3837890625</ele>
        <time>2013-04-07T12:50:19Z</time>
      </trkpt>
      <trkpt lat="47.672000275924802" lon="11.912403283640742">
        <ele>1692.53857421875</ele>
        <time>2013-04-07T12:50:22Z</time>
      </trkpt>
      <trkpt lat="47.671978985890746" lon="11.912427423521876">
        <ele>1692.53857421875</ele>
        <time>2013-04-07T12:50:23Z</time>
      </trkpt>
      <trkpt lat="47.671896927058697" lon="11.912696901708841">
        <ele>1690.135009765625</ele>
        <time>2013-04-07T12:50:32Z</time>
      </trkpt>
      <trkpt lat="47.671823501586914" lon="11.912989849224687">
        <ele>1688.693115234375</ele>
        <time>2013-04-07T12:50:41Z</time>
      </trkpt>
      <trkpt lat="47.671756949275732" lon="11.913202246651053">
        <ele>1686.770263671875</ele>
        <time>2013-04-07T12:50:51Z</time>
      </trkpt>
      <trkpt lat="47.671669190749526" lon="11.913358820602298">
        <ele>1683.886474609375</ele>
        <time>2013-04-07T12:50:55Z</time>
      </trkpt>
      <trkpt lat="47.671533655375242" lon="11.913634669035673">
        <ele>1680.52197265625</ele>
        <time>2013-04-07T12:51:01Z</time>
      </trkpt>
      <trkpt lat="47.671487722545862" lon="11.91372636705637">
        <ele>1679.079833984375</ele>
        <time>2013-04-07T12:51:03Z</time>
      </trkpt>
      <trkpt lat="47.671393258497119" lon="11.913924599066377">
        <ele>1675.715087890625</ele>
        <time>2013-04-07T12:51:08Z</time>
      </trkpt>
      <trkpt lat="47.671333160251379" lon="11.914023254066706">
        <ele>1674.75390625</ele>
        <time>2013-04-07T12:51:12Z</time>
      </trkpt>
      <trkpt lat="47.671278091147542" lon="11.91397413611412">
        <ele>1671.38916015625</ele>
        <time>2013-04-07T12:51:15Z</time>
      </trkpt>
      <trkpt lat="47.671243641525507" lon="11.913856035098433">
        <ele>1667.0634765625</ele>
        <time>2013-04-07T12:51:18Z</time>
      </trkpt>
      <trkpt lat="47.671143561601639" lon="11.913962485268712">
        <ele>1663.69873046875</ele>
        <time>2013-04-07T12:51:21Z</time>
      </trkpt>
      <trkpt lat="47.671105172485113" lon="11.914064744487405">
        <ele>1662.2568359375</ele>
        <time>2013-04-07T12:51:23Z</time>
      </trkpt>
      <trkpt lat="47.671020431444049" lon="11.914104223251343">
        <ele>1658.89208984375</ele>
        <time>2013-04-07T12:51:26Z</time>
      </trkpt>
      <trkpt lat="47.670921441167593" lon="11.913956115022302">
        <ele>1653.124267578125</ele>
        <time>2013-04-07T12:51:29Z</time>
      </trkpt>
      <trkpt lat="47.670883219689131" lon="11.913960557430983">
        <ele>1649.279052734375</ele>
        <time>2013-04-07T12:51:30Z</time>
      </trkpt>
      <trkpt lat="47.670827647671103" lon="11.91407279111445">
        <ele>1648.317626953125</ele>
        <time>2013-04-07T12:51:33Z</time>
      </trkpt>
      <trkpt lat="47.670785570517182" lon="11.914125932380557">
        <ele>1645.433837890625</ele>
        <time>2013-04-07T12:51:40Z</time>
      </trkpt>
      <trkpt lat="47.670742990449071" lon="11.914186701178551">
        <ele>1645.433837890625</ele>
        <time>2013-04-07T12:51:44Z</time>
      </trkpt>
      <trkpt lat="47.670749444514513" lon="11.914176642894745">
        <ele>1645.91455078125</ele>
        <time>2013-04-07T12:51:50Z</time>
      </trkpt>
      <trkpt lat="47.670713737607002" lon="11.914191814139485">
        <ele>1644.472412109375</ele>
        <time>2013-04-07T12:51:53Z</time>
      </trkpt>
      <trkpt lat="47.670604102313519" lon="11.914081005379558">
        <ele>1640.626953125</ele>
        <time>2013-04-07T12:51:57Z</time>
      </trkpt>
      <trkpt lat="47.670502010732889" lon="11.913856202736497">
        <ele>1633.417236328125</ele>
        <time>2013-04-07T12:52:02Z</time>
      </trkpt>
      <trkpt lat="47.670403691008687" lon="11.913733575493097">
        <ele>1630.052734375</ele>
        <time>2013-04-07T12:52:05Z</time>
      </trkpt>
      <trkpt lat="47.670318866148591" lon="11.913669621571898">
        <ele>1626.207275390625</ele>
        <time>2013-04-07T12:52:07Z</time>
      </trkpt>
      <trkpt lat="47.67027779482305" lon="11.913665179163218">
        <ele>1625.7265625</ele>
        <time>2013-04-07T12:52:08Z</time>
      </trkpt>
      <trkpt lat="47.670178553089499" lon="11.913727708160877">
        <ele>1624.765380859375</ele>
        <time>2013-04-07T12:52:13Z</time>
      </trkpt>
      <trkpt lat="47.670192969962955" lon="11.913725445047021">
        <ele>1624.28466796875</ele>
        <time>2013-04-07T12:52:40Z</time>
      </trkpt>
      <trkpt lat="47.670098338276148" lon="11.913678757846355">
        <ele>1622.362060546875</ele>
        <time>2013-04-07T12:52:44Z</time>
      </trkpt>
      <trkpt lat="47.670052740722895" lon="11.913661072030663">
        <ele>1620.920166015625</ele>
        <time>2013-04-07T12:52:45Z</time>
      </trkpt>
      <trkpt lat="47.669857358559966" lon="11.913593178614974">
        <ele>1616.113525390625</ele>
        <time>2013-04-07T12:52:49Z</time>
      </trkpt>
      <trkpt lat="47.669779323041439" lon="11.913500558584929">
        <ele>1614.19091796875</ele>
        <time>2013-04-07T12:52:51Z</time>
      </trkpt>
      <trkpt lat="47.669714447110891" lon="11.91343660466373">
        <ele>1612.7490234375</ele>
        <time>2013-04-07T12:52:55Z</time>
      </trkpt>
      <trkpt lat="47.669670777395368" lon="11.913369046524167">
        <ele>1609.38427734375</ele>
        <time>2013-04-07T12:52:57Z</time>
      </trkpt>
      <trkpt lat="47.669580588117242" lon="11.91337650641799">
        <ele>1606.500244140625</ele>
        <time>2013-04-07T12:52:59Z</time>
      </trkpt>
      <trkpt lat="47.669535242021084" lon="11.913391342386603">
        <ele>1602.655029296875</ele>
        <time>2013-04-07T12:53:00Z</time>
      </trkpt>
      <trkpt lat="47.669500121846795" lon="11.91338237375021">
        <ele>1603.1357421875</ele>
        <time>2013-04-07T12:53:01Z</time>
      </trkpt>
      <trkpt lat="47.66943440772593" lon="11.913380948826671">
        <ele>1599.29052734375</ele>
        <time>2013-04-07T12:53:04Z</time>
      </trkpt>
      <trkpt lat="47.669415296986699" lon="11.91341464407742">
        <ele>1598.809814453125</ele>
        <time>2013-04-07T12:53:05Z</time>
      </trkpt>
      <trkpt lat="47.669367268681526" lon="11.913447333499789">
        <ele>1595.445068359375</ele>
        <time>2013-04-07T12:53:07Z</time>
      </trkpt>
      <trkpt lat="47.669318150728941" lon="11.913238456472754">
        <ele>1592.08056640625</ele>
        <time>2013-04-07T12:53:10Z</time>
      </trkpt>
      <trkpt lat="47.669330053031445" lon="11.913030752912164">
        <ele>1589.67724609375</ele>
        <time>2013-04-07T12:53:13Z</time>
      </trkpt>
      <trkpt lat="47.669334746897221" lon="11.912942240014672">
        <ele>1588.716064453125</ele>
        <time>2013-04-07T12:53:17Z</time>
      </trkpt>
      <trkpt lat="47.669332316145301" lon="11.912967469543219">
        <ele>1587.754638671875</ele>
        <time>2013-04-07T12:53:36Z</time>
      </trkpt>
      <trkpt lat="47.669342961162329" lon="11.91280972212553">
        <ele>1586.312744140625</ele>
        <time>2013-04-07T12:53:40Z</time>
      </trkpt>
      <trkpt lat="47.669379422441125" lon="11.912634205073118">
        <ele>1582.467529296875</ele>
        <time>2013-04-07T12:53:43Z</time>
      </trkpt>
      <trkpt lat="47.669380847364664" lon="11.912586260586977">
        <ele>1581.98681640625</ele>
        <time>2013-04-07T12:53:44Z</time>
      </trkpt>
      <trkpt lat="47.669401634484529" lon="11.912454999983311">
        <ele>1576.699462890625</ele>
        <time>2013-04-07T12:53:47Z</time>
      </trkpt>
      <trkpt lat="47.669384703040123" lon="11.9123191293329">
        <ele>1571.892822265625</ele>
        <time>2013-04-07T12:53:50Z</time>
      </trkpt>
      <trkpt lat="47.669374980032444" lon="11.912262048572302">
        <ele>1569.48974609375</ele>
        <time>2013-04-07T12:53:51Z</time>
      </trkpt>
      <trkpt lat="47.669332567602396" lon="11.91204990260303">
        <ele>1559.876220703125</ele>
        <time>2013-04-07T12:53:55Z</time>
      </trkpt>
      <trkpt lat="47.669322341680527" lon="11.91199860535562">
        <ele>1556.992431640625</ele>
        <time>2013-04-07T12:53:56Z</time>
      </trkpt>
      <trkpt lat="47.669353438541293" lon="11.911889724433422">
        <ele>1552.66650390625</ele>
        <time>2013-04-07T12:54:00Z</time>
      </trkpt>
      <trkpt lat="47.669282192364335" lon="11.911796685308218">
        <ele>1548.8212890625</ele>
        <time>2013-04-07T12:54:03Z</time>
      </trkpt>
      <trkpt lat="47.669251263141632" lon="11.911692665889859">
        <ele>1545.45654296875</ele>
        <time>2013-04-07T12:54:05Z</time>
      </trkpt>
      <trkpt lat="47.669215807691216" lon="11.911598453298211">
        <ele>1542.57275390625</ele>
        <time>2013-04-07T12:54:07Z</time>
      </trkpt>
      <trkpt lat="47.669256292283535" lon="11.911480184644461">
        <ele>1538.7275390625</ele>
        <time>2013-04-07T12:54:10Z</time>
      </trkpt>
      <trkpt lat="47.669291831552982" lon="11.911399215459824">
        <ele>1534.88232421875</ele>
        <time>2013-04-07T12:54:13Z</time>
      </trkpt>
      <trkpt lat="47.669293256476521" lon="11.911255549639463">
        <ele>1530.075439453125</ele>
        <time>2013-04-07T12:54:16Z</time>
      </trkpt>
      <trkpt lat="47.669237684458494" lon="11.911177933216095">
        <ele>1527.672119140625</ele>
        <time>2013-04-07T12:54:19Z</time>
      </trkpt>
      <trkpt lat="47.669214131310582" lon="11.9112070184201">
        <ele>1527.672119140625</ele>
        <time>2013-04-07T12:54:29Z</time>
      </trkpt>
      <trkpt lat="47.669109692797065" lon="11.911144573241472">
        <ele>1523.346435546875</ele>
        <time>2013-04-07T12:54:34Z</time>
      </trkpt>
      <trkpt lat="47.669070716947317" lon="11.911118337884545">
        <ele>1523.346435546875</ele>
        <time>2013-04-07T12:54:35Z</time>
      </trkpt>
      <trkpt lat="47.669032076373696" lon="11.910975091159344">
        <ele>1517.097900390625</ele>
        <time>2013-04-07T12:54:38Z</time>
      </trkpt>
      <trkpt lat="47.668976420536637" lon="11.910843830555677">
        <ele>1511.810546875</ele>
        <time>2013-04-07T12:54:41Z</time>
      </trkpt>
      <trkpt lat="47.668928811326623" lon="11.910757580772042">
        <ele>1508.44580078125</ele>
        <time>2013-04-07T12:54:43Z</time>
      </trkpt>
      <trkpt lat="47.668898636475205" lon="11.91066219471395">
        <ele>1504.1201171875</ele>
        <time>2013-04-07T12:54:45Z</time>
      </trkpt>
      <trkpt lat="47.668895870447159" lon="11.910617016255856">
        <ele>1504.6005859375</ele>
        <time>2013-04-07T12:54:46Z</time>
      </trkpt>
      <trkpt lat="47.668889416381717" lon="11.910581309348345">
        <ele>1500.75537109375</ele>
        <time>2013-04-07T12:54:47Z</time>
      </trkpt>
      <trkpt lat="47.668855972588062" lon="11.910556331276894">
        <ele>1499.313232421875</ele>
        <time>2013-04-07T12:54:49Z</time>
      </trkpt>
      <trkpt lat="47.668846501037478" lon="11.910585165023804">
        <ele>1499.313232421875</ele>
        <time>2013-04-07T12:54:57Z</time>
      </trkpt>
      <trkpt lat="47.668847339227796" lon="11.910582315176725">
        <ele>1499.313232421875</ele>
        <time>2013-04-07T12:55:08Z</time>
      </trkpt>
      <trkpt lat="47.668836610391736" lon="11.910489527508616">
        <ele>1495.94873046875</ele>
        <time>2013-04-07T12:55:11Z</time>
      </trkpt>
      <trkpt lat="47.668785564601421" lon="11.91036312840879">
        <ele>1492.103515625</ele>
        <time>2013-04-07T12:55:13Z</time>
      </trkpt>
      <trkpt lat="47.668758323416114" lon="11.91029766574502">
        <ele>1492.103515625</ele>
        <time>2013-04-07T12:55:14Z</time>
      </trkpt>
      <trkpt lat="47.668712139129639" lon="11.910173529759049">
        <ele>1487.296875</ele>
        <time>2013-04-07T12:55:16Z</time>
      </trkpt>
      <trkpt lat="47.668701494112611" lon="11.910029444843531">
        <ele>1484.4130859375</ele>
        <time>2013-04-07T12:55:18Z</time>
      </trkpt>
      <trkpt lat="47.668667966499925" lon="11.90990136936307">
        <ele>1481.52880859375</ele>
        <time>2013-04-07T12:55:20Z</time>
      </trkpt>
      <trkpt lat="47.668629661202431" lon="11.909770276397467">
        <ele>1476.722412109375</ele>
        <time>2013-04-07T12:55:22Z</time>
      </trkpt>
      <trkpt lat="47.668572748079896" lon="11.909549497067928">
        <ele>1472.396484375</ele>
        <time>2013-04-07T12:55:25Z</time>
      </trkpt>
      <trkpt lat="47.668502843007445" lon="11.909410944208503">
        <ele>1468.55126953125</ele>
        <time>2013-04-07T12:55:27Z</time>
      </trkpt>
      <trkpt lat="47.668454647064209" lon="11.90928035415709">
        <ele>1465.1865234375</ele>
        <time>2013-04-07T12:55:29Z</time>
      </trkpt>
      <trkpt lat="47.668409384787083" lon="11.909170802682638">
        <ele>1461.822021484375</ele>
        <time>2013-04-07T12:55:31Z</time>
      </trkpt>
      <trkpt lat="47.668365966528654" lon="11.909064184874296">
        <ele>1459.418701171875</ele>
        <time>2013-04-07T12:55:33Z</time>
      </trkpt>
      <trkpt lat="47.668322464451194" lon="11.908980365842581">
        <ele>1455.573486328125</ele>
        <time>2013-04-07T12:55:35Z</time>
      </trkpt>
      <trkpt lat="47.66830419190228" lon="11.908966451883316">
        <ele>1455.573486328125</ele>
        <time>2013-04-07T12:55:36Z</time>
      </trkpt>
      <trkpt lat="47.668299749493599" lon="11.908999141305685">
        <ele>1455.573486328125</ele>
        <time>2013-04-07T12:55:45Z</time>
      </trkpt>
      <trkpt lat="47.668299665674567" lon="11.909000314772129">
        <ele>1455.573486328125</ele>
        <time>2013-04-07T12:55:48Z</time>
      </trkpt>
      <trkpt lat="47.668255241587758" lon="11.908968966454268">
        <ele>1454.612060546875</ele>
        <time>2013-04-07T12:55:52Z</time>
      </trkpt>
      <trkpt lat="47.668233951553702" lon="11.90882102586329">
        <ele>1452.689453125</ele>
        <time>2013-04-07T12:55:56Z</time>
      </trkpt>
      <trkpt lat="47.668177289888263" lon="11.908598653972149">
        <ele>1447.402099609375</ele>
        <time>2013-04-07T12:55:59Z</time>
      </trkpt>
      <trkpt lat="47.668046364560723" lon="11.908491868525743">
        <ele>1444.51806640625</ele>
        <time>2013-04-07T12:56:02Z</time>
      </trkpt>
      <trkpt lat="47.667927257716656" lon="11.908409306779504">
        <ele>1440.6728515625</ele>
        <time>2013-04-07T12:56:05Z</time>
      </trkpt>
      <trkpt lat="47.667848970741034" lon="11.908355159685016">
        <ele>1439.711669921875</ele>
        <time>2013-04-07T12:56:07Z</time>
      </trkpt>
      <trkpt lat="47.667768085375428" lon="11.908336216583848">
        <ele>1436.82763671875</ele>
        <time>2013-04-07T12:56:10Z</time>
      </trkpt>
      <trkpt lat="47.667730953544378" lon="11.908430764451623">
        <ele>1434.905029296875</ele>
        <time>2013-04-07T12:56:12Z</time>
      </trkpt>
      <trkpt lat="47.667643865570426" lon="11.908521624282002">
        <ele>1432.02099609375</ele>
        <time>2013-04-07T12:56:14Z</time>
      </trkpt>
      <trkpt lat="47.667491650208831" lon="11.90848239697516">
        <ele>1430.098388671875</ele>
        <time>2013-04-07T12:56:19Z</time>
      </trkpt>
      <trkpt lat="47.66749651171267" lon="11.908466471359134">
        <ele>1429.136962890625</ele>
        <time>2013-04-07T12:56:26Z</time>
      </trkpt>
      <trkpt lat="47.667478993535042" lon="11.908467393368483">
        <ele>1429.61767578125</ele>
        <time>2013-04-07T12:56:32Z</time>
      </trkpt>
      <trkpt lat="47.667388552799821" lon="11.908420873805881">
        <ele>1426.253173828125</ele>
        <time>2013-04-07T12:56:36Z</time>
      </trkpt>
      <trkpt lat="47.667272882536054" lon="11.908304197713733">
        <ele>1421.92724609375</ele>
        <time>2013-04-07T12:56:40Z</time>
      </trkpt>
      <trkpt lat="47.667178586125374" lon="11.908340742811561">
        <ele>1418.081787109375</ele>
        <time>2013-04-07T12:56:43Z</time>
      </trkpt>
      <trkpt lat="47.667103903368115" lon="11.908320626243949">
        <ele>1413.275390625</ele>
        <time>2013-04-07T12:56:46Z</time>
      </trkpt>
      <trkpt lat="47.667020000517368" lon="11.908370582386851">
        <ele>1409.43017578125</ele>
        <time>2013-04-07T12:56:49Z</time>
      </trkpt>
      <trkpt lat="47.666976246982813" lon="11.908404026180506">
        <ele>1407.98828125</ele>
        <time>2013-04-07T12:56:51Z</time>
      </trkpt>
      <trkpt lat="47.667002398520708" lon="11.908428836613894">
        <ele>1407.98828125</ele>
        <time>2013-04-07T12:56:58Z</time>
      </trkpt>
      <trkpt lat="47.666998039931059" lon="11.908426154404879">
        <ele>1407.98828125</ele>
        <time>2013-04-07T12:57:05Z</time>
      </trkpt>
      <trkpt lat="47.666948335245252" lon="11.90847753547132">
        <ele>1404.14306640625</ele>
        <time>2013-04-07T12:57:08Z</time>
      </trkpt>
      <trkpt lat="47.666839035227895" lon="11.908505447208881">
        <ele>1399.336181640625</ele>
        <time>2013-04-07T12:57:10Z</time>
      </trkpt>
      <trkpt lat="47.666717749089003" lon="11.908519947901368">
        <ele>1395.490966796875</ele>
        <time>2013-04-07T12:57:12Z</time>
      </trkpt>
      <trkpt lat="47.6666159927845" lon="11.908500585705042">
        <ele>1393.087646484375</ele>
        <time>2013-04-07T12:57:14Z</time>
      </trkpt>
      <trkpt lat="47.666376018896699" lon="11.908685155212879">
        <ele>1387.80029296875</ele>
        <time>2013-04-07T12:57:18Z</time>
      </trkpt>
      <trkpt lat="47.666157837957144" lon="11.908924793824553">
        <ele>1384.435791015625</ele>
        <time>2013-04-07T12:57:22Z</time>
      </trkpt>
      <trkpt lat="47.666088100522757" lon="11.909026885405183">
        <ele>1383.955078125</ele>
        <time>2013-04-07T12:57:24Z</time>
      </trkpt>
      <trkpt lat="47.665902692824602" lon="11.90920852124691">
        <ele>1381.5517578125</ele>
        <time>2013-04-07T12:57:29Z</time>
      </trkpt>
      <trkpt lat="47.665877630934119" lon="11.909261411055923">
        <ele>1382.032470703125</ele>
        <time>2013-04-07T12:57:33Z</time>
      </trkpt>
      <trkpt lat="47.665832117199898" lon="11.909285970032215">
        <ele>1381.5517578125</ele>
        <time>2013-04-07T12:57:59Z</time>
      </trkpt>
      <trkpt lat="47.665676046162844" lon="11.909429216757417">
        <ele>1381.0712890625</ele>
        <time>2013-04-07T12:58:05Z</time>
      </trkpt>
      <trkpt lat="47.665662551298738" lon="11.909451764076948">
        <ele>1380.590576171875</ele>
        <time>2013-04-07T12:58:11Z</time>
      </trkpt>
      <trkpt lat="47.665664395317435" lon="11.909445645287633">
        <ele>1381.5517578125</ele>
        <time>2013-04-07T13:00:22Z</time>
      </trkpt>
      <trkpt lat="47.665507066994905" lon="11.909408178180456">
        <ele>1380.590576171875</ele>
        <time>2013-04-07T13:00:29Z</time>
      </trkpt>
      <trkpt lat="47.665275894105434" lon="11.909362832084298">
        <ele>1378.66796875</ele>
        <time>2013-04-07T13:00:34Z</time>
      </trkpt>
      <trkpt lat="47.665160894393921" lon="11.909345146268606">
        <ele>1377.70654296875</ele>
        <time>2013-04-07T13:00:36Z</time>
      </trkpt>
      <trkpt lat="47.664975989609957" lon="11.90932871773839">
        <ele>1376.2646484375</ele>
        <time>2013-04-07T13:00:39Z</time>
      </trkpt>
      <trkpt lat="47.664477685466409" lon="11.909267781302333">
        <ele>1373.380859375</ele>
        <time>2013-04-07T13:00:46Z</time>
      </trkpt>
      <trkpt lat="47.664415827021003" lon="11.909263171255589">
        <ele>1373.380859375</ele>
        <time>2013-04-07T13:00:47Z</time>
      </trkpt>
      <trkpt lat="47.66420460306108" lon="11.909138867631555">
        <ele>1371.457763671875</ele>
        <time>2013-04-07T13:00:52Z</time>
      </trkpt>
      <trkpt lat="47.664113910868764" lon="11.909188823774457">
        <ele>1370.49658203125</ele>
        <time>2013-04-07T13:00:54Z</time>
      </trkpt>
      <trkpt lat="47.663928167894483" lon="11.909424858167768">
        <ele>1370.015869140625</ele>
        <time>2013-04-07T13:00:58Z</time>
      </trkpt>
      <trkpt lat="47.663803696632385" lon="11.909701880067587">
        <ele>1368.573974609375</ele>
        <time>2013-04-07T13:01:02Z</time>
      </trkpt>
      <trkpt lat="47.663702024146914" lon="11.910273693501949">
        <ele>1365.20947265625</ele>
        <time>2013-04-07T13:01:08Z</time>
      </trkpt>
      <trkpt lat="47.663671681657434" lon="11.910390788689256">
        <ele>1364.248046875</ele>
        <time>2013-04-07T13:01:09Z</time>
      </trkpt>
      <trkpt lat="47.663492476567626" lon="11.910849697887897">
        <ele>1360.883544921875</ele>
        <time>2013-04-07T13:01:13Z</time>
      </trkpt>
      <trkpt lat="47.663162145763636" lon="11.911251693964005">
        <ele>1358.480224609375</ele>
        <time>2013-04-07T13:01:18Z</time>
      </trkpt>
      <trkpt lat="47.6630172226578" lon="11.91130617633462">
        <ele>1358.480224609375</ele>
        <time>2013-04-07T13:01:20Z</time>
      </trkpt>
      <trkpt lat="47.662763334810734" lon="11.911314642056823">
        <ele>1355.115478515625</ele>
        <time>2013-04-07T13:01:24Z</time>
      </trkpt>
      <trkpt lat="47.662580190226436" lon="11.911154547706246">
        <ele>1353.19287109375</ele>
        <time>2013-04-07T13:01:28Z</time>
      </trkpt>
      <trkpt lat="47.662511374801397" lon="11.910855900496244">
        <ele>1350.30908203125</ele>
        <time>2013-04-07T13:01:32Z</time>
      </trkpt>
      <trkpt lat="47.662485390901566" lon="11.910305544734001">
        <ele>1345.983154296875</ele>
        <time>2013-04-07T13:01:36Z</time>
      </trkpt>
      <trkpt lat="47.662478601559997" lon="11.910129273310304">
        <ele>1342.61865234375</ele>
        <time>2013-04-07T13:01:37Z</time>
      </trkpt>
      <trkpt lat="47.662479523569345" lon="11.909746220335364">
        <ele>1338.29248046875</ele>
        <time>2013-04-07T13:01:39Z</time>
      </trkpt>
      <trkpt lat="47.662489330396056" lon="11.909350845962763">
        <ele>1333.005126953125</ele>
        <time>2013-04-07T13:01:41Z</time>
      </trkpt>
      <trkpt lat="47.662492096424103" lon="11.908950274810195">
        <ele>1329.640625</ele>
        <time>2013-04-07T13:01:43Z</time>
      </trkpt>
      <trkpt lat="47.662490839138627" lon="11.908570574596524">
        <ele>1326.276123046875</ele>
        <time>2013-04-07T13:01:45Z</time>
      </trkpt>
      <trkpt lat="47.662494443356991" lon="11.908387010917068">
        <ele>1326.276123046875</ele>
        <time>2013-04-07T13:01:46Z</time>
      </trkpt>
      <trkpt lat="47.662509111687541" lon="11.907868254929781">
        <ele>1322.911376953125</ele>
        <time>2013-04-07T13:01:49Z</time>
      </trkpt>
      <trkpt lat="47.662518415600061" lon="11.90756231546402">
        <ele>1321.949951171875</ele>
        <time>2013-04-07T13:01:51Z</time>
      </trkpt>
      <trkpt lat="47.662528809159994" lon="11.907269703224301">
        <ele>1319.066162109375</ele>
        <time>2013-04-07T13:01:53Z</time>
      </trkpt>
      <trkpt lat="47.662534257397056" lon="11.907127294689417">
        <ele>1319.066162109375</ele>
        <time>2013-04-07T13:01:54Z</time>
      </trkpt>
      <trkpt lat="47.662539705634117" lon="11.906677186489105">
        <ele>1319.066162109375</ele>
        <time>2013-04-07T13:01:58Z</time>
      </trkpt>
      <trkpt lat="47.662544567137957" lon="11.90631927922368">
        <ele>1318.58544921875</ele>
        <time>2013-04-07T13:02:04Z</time>
      </trkpt>
      <trkpt lat="47.662540208548307" lon="11.905886856839061">
        <ele>1317.6240234375</ele>
        <time>2013-04-07T13:02:13Z</time>
      </trkpt>
      <trkpt lat="47.662538280710578" lon="11.905270032584667">
        <ele>1316.662841796875</ele>
        <time>2013-04-07T13:02:24Z</time>
      </trkpt>
      <trkpt lat="47.662562085315585" lon="11.905041374266148">
        <ele>1316.662841796875</ele>
        <time>2013-04-07T13:02:31Z</time>
      </trkpt>
      <trkpt lat="47.662583626806736" lon="11.904717078432441">
        <ele>1316.18212890625</ele>
        <time>2013-04-07T13:02:41Z</time>
      </trkpt>
      <trkpt lat="47.662638947367668" lon="11.904286500066519">
        <ele>1314.740234375</ele>
        <time>2013-04-07T13:02:51Z</time>
      </trkpt>
      <trkpt lat="47.662684377282858" lon="11.903780987486243">
        <ele>1312.817626953125</ele>
        <time>2013-04-07T13:02:58Z</time>
      </trkpt>
      <trkpt lat="47.662709103897214" lon="11.90350916236639">
        <ele>1311.375732421875</ele>
        <time>2013-04-07T13:03:01Z</time>
      </trkpt>
      <trkpt lat="47.662762412801385" lon="11.903105573728681">
        <ele>1308.01123046875</ele>
        <time>2013-04-07T13:03:05Z</time>
      </trkpt>
      <trkpt lat="47.662783870473504" lon="11.902900049462914">
        <ele>1307.5302734375</ele>
        <time>2013-04-07T13:03:07Z</time>
      </trkpt>
      <trkpt lat="47.662824774160981" lon="11.902259336784482">
        <ele>1305.607666015625</ele>
        <time>2013-04-07T13:03:15Z</time>
      </trkpt>
      <trkpt lat="47.662845393642783" lon="11.902068648487329">
        <ele>1305.126953125</ele>
        <time>2013-04-07T13:03:20Z</time>
      </trkpt>
      <trkpt lat="47.662859056144953" lon="11.901982733979821">
        <ele>1305.607666015625</ele>
        <time>2013-04-07T13:03:25Z</time>
      </trkpt>
      <trkpt lat="47.662873724475503" lon="11.90188642591238">
        <ele>1305.607666015625</ele>
        <time>2013-04-07T13:03:31Z</time>
      </trkpt>
      <trkpt lat="47.662889566272497" lon="11.901776790618896">
        <ele>1306.088134765625</ele>
        <time>2013-04-07T13:03:36Z</time>
      </trkpt>
      <trkpt lat="47.66290239058435" lon="11.901561710983515">
        <ele>1306.088134765625</ele>
        <time>2013-04-07T13:03:45Z</time>
      </trkpt>
      <trkpt lat="47.662929212674499" lon="11.901239762082696">
        <ele>1306.088134765625</ele>
        <time>2013-04-07T13:03:57Z</time>
      </trkpt>
      <trkpt lat="47.662939438596368" lon="11.901068687438965">
        <ele>1306.56884765625</ele>
        <time>2013-04-07T13:04:04Z</time>
      </trkpt>
      <trkpt lat="47.662951005622745" lon="11.900817062705755">
        <ele>1306.56884765625</ele>
        <time>2013-04-07T13:04:14Z</time>
      </trkpt>
      <trkpt lat="47.662967350333929" lon="11.900541549548507">
        <ele>1306.56884765625</ele>
        <time>2013-04-07T13:04:24Z</time>
      </trkpt>
      <trkpt lat="47.663012277334929" lon="11.90023384988308">
        <ele>1306.56884765625</ele>
        <time>2013-04-07T13:04:35Z</time>
      </trkpt>
      <trkpt lat="47.663035495206714" lon="11.900136116892099">
        <ele>1307.049560546875</ele>
        <time>2013-04-07T13:04:45Z</time>
      </trkpt>
      <trkpt lat="47.663070280104876" lon="11.900001587346196">
        <ele>1307.5302734375</ele>
        <time>2013-04-07T13:04:59Z</time>
      </trkpt>
      <trkpt lat="47.663136748597026" lon="11.899861693382263">
        <ele>1308.49169921875</ele>
        <time>2013-04-07T13:05:08Z</time>
      </trkpt>
      <trkpt lat="47.663203217089176" lon="11.899723391979933">
        <ele>1308.49169921875</ele>
        <time>2013-04-07T13:05:23Z</time>
      </trkpt>
      <trkpt lat="47.663303297013044" lon="11.899533458054066">
        <ele>1309.453125</ele>
        <time>2013-04-07T13:05:41Z</time>
      </trkpt>
      <trkpt lat="47.663423912599683" lon="11.899341512471437">
        <ele>1308.972412109375</ele>
        <time>2013-04-07T13:05:52Z</time>
      </trkpt>
      <trkpt lat="47.663470851257443" lon="11.899259369820356">
        <ele>1309.93359375</ele>
        <time>2013-04-07T13:06:02Z</time>
      </trkpt>
      <trkpt lat="47.663556262850761" lon="11.899083182215691">
        <ele>1310.414306640625</ele>
        <time>2013-04-07T13:06:21Z</time>
      </trkpt>
      <trkpt lat="47.663666903972626" lon="11.898910766467452">
        <ele>1310.414306640625</ele>
        <time>2013-04-07T13:06:39Z</time>
      </trkpt>
      <trkpt lat="47.663804283365607" lon="11.89869711175561">
        <ele>1309.453125</ele>
        <time>2013-04-07T13:06:50Z</time>
      </trkpt>
      <trkpt lat="47.663937723264098" lon="11.898496700450778">
        <ele>1307.5302734375</ele>
        <time>2013-04-07T13:06:55Z</time>
      </trkpt>
      <trkpt lat="47.664138386026025" lon="11.898179864510894">
        <ele>1304.165771484375</ele>
        <time>2013-04-07T13:07:00Z</time>
      </trkpt>
      <trkpt lat="47.664273921400309" lon="11.897875433787704">
        <ele>1299.83984375</ele>
        <time>2013-04-07T13:07:04Z</time>
      </trkpt>
      <trkpt lat="47.664411636069417" lon="11.897632945328951">
        <ele>1295.513916015625</ele>
        <time>2013-04-07T13:07:07Z</time>
      </trkpt>
      <trkpt lat="47.664521774277091" lon="11.897505205124617">
        <ele>1292.1494140625</ele>
        <time>2013-04-07T13:07:09Z</time>
      </trkpt>
      <trkpt lat="47.664573658257723" lon="11.897440245375037">
        <ele>1289.26513671875</ele>
        <time>2013-04-07T13:07:10Z</time>
      </trkpt>
      <trkpt lat="47.664691172540188" lon="11.897185519337654">
        <ele>1278.69091796875</ele>
        <time>2013-04-07T13:07:13Z</time>
      </trkpt>
      <trkpt lat="47.664744313806295" lon="11.896978486329317">
        <ele>1272.442138671875</ele>
        <time>2013-04-07T13:07:15Z</time>
      </trkpt>
      <trkpt lat="47.664765184745193" lon="11.896866085007787">
        <ele>1269.07763671875</ele>
        <time>2013-04-07T13:07:16Z</time>
      </trkpt>
      <trkpt lat="47.664801562204957" lon="11.896623512730002">
        <ele>1262.348388671875</ele>
        <time>2013-04-07T13:07:18Z</time>
      </trkpt>
      <trkpt lat="47.664819667115808" lon="11.896498873829842">
        <ele>1259.46435546875</ele>
        <time>2013-04-07T13:07:19Z</time>
      </trkpt>
      <trkpt lat="47.664853697642684" lon="11.896261163055897">
        <ele>1253.2158203125</ele>
        <time>2013-04-07T13:07:21Z</time>
      </trkpt>
      <trkpt lat="47.664859984070063" lon="11.896147588267922">
        <ele>1249.851318359375</ele>
        <time>2013-04-07T13:07:22Z</time>
      </trkpt>
      <trkpt lat="47.664865348488092" lon="11.896033510565758">
        <ele>1247.9287109375</ele>
        <time>2013-04-07T13:07:23Z</time>
      </trkpt>
      <trkpt lat="47.664862666279078" lon="11.895800158381462">
        <ele>1242.16064453125</ele>
        <time>2013-04-07T13:07:25Z</time>
      </trkpt>
      <trkpt lat="47.664841711521149" lon="11.895543755963445">
        <ele>1236.873291015625</ele>
        <time>2013-04-07T13:07:27Z</time>
      </trkpt>
      <trkpt lat="47.664821930229664" lon="11.895410399883986">
        <ele>1234.47021484375</ele>
        <time>2013-04-07T13:07:28Z</time>
      </trkpt>
      <trkpt lat="47.664737859740853" lon="11.895204205065966">
        <ele>1229.66357421875</ele>
        <time>2013-04-07T13:07:30Z</time>
      </trkpt>
      <trkpt lat="47.66467566601932" lon="11.895152237266302">
        <ele>1229.182861328125</ele>
        <time>2013-04-07T13:07:31Z</time>
      </trkpt>
      <trkpt lat="47.664443487301469" lon="11.895027849823236">
        <ele>1223.4150390625</ele>
        <time>2013-04-07T13:07:35Z</time>
      </trkpt>
      <trkpt lat="47.664331085979939" lon="11.894979570060968">
        <ele>1218.127685546875</ele>
        <time>2013-04-07T13:07:37Z</time>
      </trkpt>
      <trkpt lat="47.66422220505774" lon="11.894940175116062">
        <ele>1215.243896484375</ele>
        <time>2013-04-07T13:07:39Z</time>
      </trkpt>
      <trkpt lat="47.664177948608994" lon="11.894894996657968">
        <ele>1211.879150390625</ele>
        <time>2013-04-07T13:07:40Z</time>
      </trkpt>
      <trkpt lat="47.664138050749898" lon="11.894842609763145">
        <ele>1210.43701171875</ele>
        <time>2013-04-07T13:07:41Z</time>
      </trkpt>
      <trkpt lat="47.664106534793973" lon="11.894585201516747">
        <ele>1203.7080078125</ele>
        <time>2013-04-07T13:07:45Z</time>
      </trkpt>
      <trkpt lat="47.664114078506827" lon="11.894435165449977">
        <ele>1199.382080078125</ele>
        <time>2013-04-07T13:07:47Z</time>
      </trkpt>
      <trkpt lat="47.664127741008997" lon="11.894329804927111">
        <ele>1196.017578125</ele>
        <time>2013-04-07T13:07:49Z</time>
      </trkpt>
      <trkpt lat="47.664177864789963" lon="11.894246069714427">
        <ele>1191.210693359375</ele>
        <time>2013-04-07T13:07:51Z</time>
      </trkpt>
      <trkpt lat="47.664208207279444" lon="11.894194856286049">
        <ele>1188.326904296875</ele>
        <time>2013-04-07T13:07:52Z</time>
      </trkpt>
      <trkpt lat="47.664249530062079" lon="11.894048508256674">
        <ele>1183.520263671875</ele>
        <time>2013-04-07T13:07:54Z</time>
      </trkpt>
      <trkpt lat="47.664246847853065" lon="11.893963515758514">
        <ele>1180.15576171875</ele>
        <time>2013-04-07T13:07:55Z</time>
      </trkpt>
      <trkpt lat="47.664234526455402" lon="11.893793614581227">
        <ele>1176.310302734375</ele>
        <time>2013-04-07T13:07:57Z</time>
      </trkpt>
      <trkpt lat="47.66424416564405" lon="11.893706526607275">
        <ele>1172.94580078125</ele>
        <time>2013-04-07T13:07:58Z</time>
      </trkpt>
      <trkpt lat="47.664253301918507" lon="11.893619606271386">
        <ele>1169.581298828125</ele>
        <time>2013-04-07T13:07:59Z</time>
      </trkpt>
      <trkpt lat="47.6642847340554" lon="11.893451884388924">
        <ele>1162.851806640625</ele>
        <time>2013-04-07T13:08:01Z</time>
      </trkpt>
      <trkpt lat="47.664324548095465" lon="11.893286006525159">
        <ele>1159.006591796875</ele>
        <time>2013-04-07T13:08:03Z</time>
      </trkpt>
      <trkpt lat="47.664354220032692" lon="11.893196487799287">
        <ele>1157.083984375</ele>
        <time>2013-04-07T13:08:04Z</time>
      </trkpt>
      <trkpt lat="47.664456395432353" lon="11.892849644646049">
        <ele>1148.912841796875</ele>
        <time>2013-04-07T13:08:08Z</time>
      </trkpt>
      <trkpt lat="47.664487492293119" lon="11.892781332135201">
        <ele>1147.951416015625</ele>
        <time>2013-04-07T13:08:09Z</time>
      </trkpt>
      <trkpt lat="47.664644652977586" lon="11.89255116507411">
        <ele>1142.18359375</ele>
        <time>2013-04-07T13:08:13Z</time>
      </trkpt>
      <trkpt lat="47.664727717638016" lon="11.892513362690806">
        <ele>1140.741455078125</ele>
        <time>2013-04-07T13:08:15Z</time>
      </trkpt>
      <trkpt lat="47.664809441193938" lon="11.892429376021028">
        <ele>1136.896240234375</ele>
        <time>2013-04-07T13:08:18Z</time>
      </trkpt>
      <trkpt lat="47.66495025716722" lon="11.892166184261441">
        <ele>1126.802490234375</ele>
        <time>2013-04-07T13:08:22Z</time>
      </trkpt>
      <trkpt lat="47.664988394826651" lon="11.892097033560276">
        <ele>1123.91845703125</ele>
        <time>2013-04-07T13:08:23Z</time>
      </trkpt>
      <trkpt lat="47.665021670982242" lon="11.892034588381648">
        <ele>1123.91845703125</ele>
        <time>2013-04-07T13:08:24Z</time>
      </trkpt>
      <trkpt lat="47.665042877197266" lon="11.891970550641418">
        <ele>1119.112060546875</ele>
        <time>2013-04-07T13:08:25Z</time>
      </trkpt>
      <trkpt lat="47.665060143917799" lon="11.89190081320703">
        <ele>1117.669921875</ele>
        <time>2013-04-07T13:08:26Z</time>
      </trkpt>
      <trkpt lat="47.665084199979901" lon="11.891728146001697">
        <ele>1113.343994140625</ele>
        <time>2013-04-07T13:08:28Z</time>
      </trkpt>
      <trkpt lat="47.665174305438995" lon="11.891444334760308">
        <ele>1107.576171875</ele>
        <time>2013-04-07T13:08:31Z</time>
      </trkpt>
      <trkpt lat="47.665265500545502" lon="11.891261022537947">
        <ele>1103.73095703125</ele>
        <time>2013-04-07T13:08:33Z</time>
      </trkpt>
      <trkpt lat="47.665309337899089" lon="11.891174856573343">
        <ele>1102.76953125</ele>
        <time>2013-04-07T13:08:34Z</time>
      </trkpt>
      <trkpt lat="47.665446046739817" lon="11.89085952937603">
        <ele>1097.962890625</ele>
        <time>2013-04-07T13:08:38Z</time>
      </trkpt>
      <trkpt lat="47.665481586009264" lon="11.890787277370691">
        <ele>1097.482177734375</ele>
        <time>2013-04-07T13:08:39Z</time>
      </trkpt>
      <trkpt lat="47.665565153583884" lon="11.89047496765852">
        <ele>1092.67578125</ele>
        <time>2013-04-07T13:08:43Z</time>
      </trkpt>
      <trkpt lat="47.665612595155835" lon="11.890151090919971">
        <ele>1088.349853515625</ele>
        <time>2013-04-07T13:08:48Z</time>
      </trkpt>
      <trkpt lat="47.665539253503084" lon="11.890067104250193">
        <ele>1084.02392578125</ele>
        <time>2013-04-07T13:08:50Z</time>
      </trkpt>
      <trkpt lat="47.665430624037981" lon="11.889953361824155">
        <ele>1082.581787109375</ele>
        <time>2013-04-07T13:08:53Z</time>
      </trkpt>
      <trkpt lat="47.665331130847335" lon="11.889943219721317">
        <ele>1081.620361328125</ele>
        <time>2013-04-07T13:08:58Z</time>
      </trkpt>
      <trkpt lat="47.665338674560189" lon="11.889956127852201">
        <ele>1081.620361328125</ele>
        <time>2013-04-07T13:09:22Z</time>
      </trkpt>
      <trkpt lat="47.665332723408937" lon="11.889946572482586">
        <ele>1081.620361328125</ele>
        <time>2013-04-07T13:09:30Z</time>
      </trkpt>
      <trkpt lat="47.665332891047001" lon="11.889954619109631">
        <ele>1081.620361328125</ele>
        <time>2013-04-07T13:09:49Z</time>
      </trkpt>
      <trkpt lat="47.665325263515115" lon="11.88994724303484">
        <ele>1081.620361328125</ele>
        <time>2013-04-07T13:09:58Z</time>
      </trkpt>
      <trkpt lat="47.665327275171876" lon="11.889944225549698">
        <ele>1080.6591796875</ele>
        <time>2013-04-07T13:10:00Z</time>
      </trkpt>
    </trkseg>
  </trk>

</gpx>
